PWSweather.com
Personal Weather Stations
Station Observations
EI4HQ
Cork Harbour, CobhIE

Cork HarbourCobhIE

Lat: 51.85, Lon: -8.29

Elevation: 252

Station Type: Davis Vantage Pro2

http://www.corkharbourweather.ie

High Low Average
Temperature 67.3°F19.6°C 55.8°F13.2°C 60.8°F16.0°C
Dew Point 64.0°F17.8°C 55.2°F12.9°C 58.8°F14.9°C
Winds 11.0 mph 17.7 kmh Calm Calm 7.0 mph SW11.3 kmh SW
Wind Gusts 17.0 mph27.4 kmh 2.0 mph3.2 kmh 11.0 mph17.7 kmh
Humidity 100% 84% 93%
Pressure 30.16 in1021.3 mb 30.07 in1018.3 mb -
Precipitation 0.02 in0.5 mm - -
Hour Temp Dew Point Humidity Winds Wind Gusts Pressure Precip Precip Rate Daily Precip Total
12:00 AM 60.4°F15.8°C 59.9°F15.5°C 98% Calm Calm 2.0 mph3.2 kmh 30.07 in1018.3 mb 0.01 in0.3 mm 0.00 in0.0 mm 0.01 in0.3 mm
12:03 AM 60.4°F15.8°C 59.9°F15.5°C 98% Calm Calm 2.0 mph3.2 kmh 30.08 in1018.6 mb 0.01 in0.3 mm 0.00 in0.0 mm 0.01 in0.3 mm
12:06 AM 60.4°F15.8°C 59.9°F15.5°C 98% 1.0 mph NNW1.6 kmh NNW 6.0 mph9.7 kmh 30.08 in1018.6 mb 0.01 in0.3 mm 0.00 in0.0 mm 0.01 in0.3 mm
12:09 AM 60.4°F15.8°C 59.9°F15.5°C 98% 2.0 mph NNW3.2 kmh NNW 6.0 mph9.7 kmh 30.08 in1018.6 mb 0.01 in0.3 mm 0.00 in0.0 mm 0.01 in0.3 mm
12:12 AM 60.3°F15.7°C 59.7°F15.4°C 98% 3.0 mph NNW4.8 kmh NNW 9.0 mph14.5 kmh 30.08 in1018.6 mb 0.01 in0.3 mm 0.00 in0.0 mm 0.01 in0.3 mm
12:15 AM 60.3°F15.7°C 59.7°F15.4°C 98% 4.0 mph NNW6.4 kmh NNW 9.0 mph14.5 kmh 30.08 in1018.6 mb 0.01 in0.3 mm 0.00 in0.0 mm 0.01 in0.3 mm
12:18 AM 60.1°F15.6°C 59.5°F15.3°C 98% 5.0 mph NNW8.0 kmh NNW 10.0 mph16.1 kmh 30.08 in1018.6 mb 0.01 in0.3 mm 0.00 in0.0 mm 0.01 in0.3 mm
12:21 AM 60.1°F15.6°C 59.4°F15.2°C 98% 5.0 mph NNW8.0 kmh NNW 10.0 mph16.1 kmh 30.08 in1018.6 mb 0.00 in0.0 mm 0.00 in0.0 mm 0.01 in0.3 mm
12:24 AM 59.9°F15.5°C 59.4°F15.2°C 98% 5.0 mph NNW8.0 kmh NNW 10.0 mph16.1 kmh 30.08 in1018.6 mb 0.00 in0.0 mm 0.00 in0.0 mm 0.01 in0.3 mm
12:27 AM 59.7°F15.4°C 59.2°F15.1°C 98% 6.0 mph NNW9.7 kmh NNW 9.0 mph14.5 kmh 30.08 in1018.6 mb 0.00 in0.0 mm 0.00 in0.0 mm 0.01 in0.3 mm
12:30 AM 59.7°F15.4°C 59.2°F15.1°C 98% 6.0 mph NNW9.7 kmh NNW 9.0 mph14.5 kmh 30.08 in1018.6 mb 0.00 in0.0 mm 0.00 in0.0 mm 0.01 in0.3 mm
12:33 AM 59.7°F15.4°C 59.2°F15.1°C 98% 6.0 mph NNW9.7 kmh NNW 9.0 mph14.5 kmh 30.08 in1018.6 mb 0.00 in0.0 mm 0.00 in0.0 mm 0.01 in0.3 mm
12:36 AM 59.5°F15.3°C 59.0°F15.0°C 98% 6.0 mph NNW9.7 kmh NNW 9.0 mph14.5 kmh 30.08 in1018.6 mb 0.00 in0.0 mm 0.00 in0.0 mm 0.01 in0.3 mm
12:39 AM 59.5°F15.3°C 59.0°F15.0°C 98% 6.0 mph NNW9.7 kmh NNW 10.0 mph16.1 kmh 30.08 in1018.6 mb 0.00 in0.0 mm 0.00 in0.0 mm 0.01 in0.3 mm
12:42 AM 59.5°F15.3°C 59.0°F15.0°C 98% 7.0 mph NNW11.3 kmh NNW 10.0 mph16.1 kmh 30.08 in1018.6 mb 0.00 in0.0 mm 0.00 in0.0 mm 0.01 in0.3 mm
12:45 AM 59.5°F15.3°C 59.0°F15.0°C 98% 7.0 mph NNW11.3 kmh NNW 10.0 mph16.1 kmh 30.08 in1018.6 mb 0.00 in0.0 mm 0.00 in0.0 mm 0.01 in0.3 mm
12:48 AM 59.4°F15.2°C 58.8°F14.9°C 98% 7.0 mph NNW11.3 kmh NNW 10.0 mph16.1 kmh 30.08 in1018.6 mb 0.00 in0.0 mm 0.00 in0.0 mm 0.01 in0.3 mm
12:51 AM 59.4°F15.2°C 58.8°F14.9°C 98% 8.0 mph NNW12.9 kmh NNW 11.0 mph17.7 kmh 30.08 in1018.6 mb 0.00 in0.0 mm 0.00 in0.0 mm 0.01 in0.3 mm
12:54 AM 59.4°F15.2°C 58.8°F14.9°C 98% 8.0 mph NNW12.9 kmh NNW 11.0 mph17.7 kmh 30.08 in1018.6 mb 0.00 in0.0 mm 0.00 in0.0 mm 0.01 in0.3 mm
12:57 AM 59.4°F15.2°C 58.8°F14.9°C 98% 8.0 mph NNW12.9 kmh NNW 11.0 mph17.7 kmh 30.08 in1018.6 mb 0.00 in0.0 mm 0.00 in0.0 mm 0.01 in0.3 mm
01:00 AM 59.4°F15.2°C 58.8°F14.9°C 98% 8.0 mph NNW12.9 kmh NNW 11.0 mph17.7 kmh 30.08 in1018.6 mb 0.00 in0.0 mm 0.00 in0.0 mm 0.01 in0.3 mm
01:03 AM 59.4°F15.2°C 58.8°F14.9°C 98% 8.0 mph NNW12.9 kmh NNW 12.0 mph19.3 kmh 30.08 in1018.6 mb 0.00 in0.0 mm 0.00 in0.0 mm 0.01 in0.3 mm
01:06 AM 59.4°F15.2°C 58.8°F14.9°C 98% 8.0 mph NNW12.9 kmh NNW 12.0 mph19.3 kmh 30.08 in1018.6 mb 0.00 in0.0 mm 0.00 in0.0 mm 0.01 in0.3 mm
01:09 AM 59.4°F15.2°C 58.8°F14.9°C 98% 7.0 mph NNW11.3 kmh NNW 12.0 mph19.3 kmh 30.08 in1018.6 mb 0.00 in0.0 mm 0.00 in0.0 mm 0.01 in0.3 mm
01:12 AM 59.4°F15.2°C 58.8°F14.9°C 98% 6.0 mph NNW9.7 kmh NNW 12.0 mph19.3 kmh 30.09 in1019.0 mb 0.00 in0.0 mm 0.00 in0.0 mm 0.01 in0.3 mm
01:15 AM 59.2°F15.1°C 58.6°F14.8°C 98% 6.0 mph NNW9.7 kmh NNW 10.0 mph16.1 kmh 30.09 in1019.0 mb 0.00 in0.0 mm 0.00 in0.0 mm 0.01 in0.3 mm
01:18 AM 59.2°F15.1°C 58.6°F14.8°C 98% 6.0 mph NNW9.7 kmh NNW 10.0 mph16.1 kmh 30.09 in1019.0 mb 0.00 in0.0 mm 0.00 in0.0 mm 0.01 in0.3 mm
01:21 AM 59.2°F15.1°C 58.6°F14.8°C 98% 5.0 mph NNW8.0 kmh NNW 10.0 mph16.1 kmh 30.09 in1019.0 mb 0.00 in0.0 mm 0.00 in0.0 mm 0.01 in0.3 mm
01:24 AM 59.2°F15.1°C 58.6°F14.8°C 98% 5.0 mph NNW8.0 kmh NNW 10.0 mph16.1 kmh 30.09 in1019.0 mb 0.00 in0.0 mm 0.00 in0.0 mm 0.01 in0.3 mm
01:27 AM 59.2°F15.1°C 58.5°F14.7°C 98% 5.0 mph NNW8.0 kmh NNW 9.0 mph14.5 kmh 30.09 in1019.0 mb 0.00 in0.0 mm 0.00 in0.0 mm 0.01 in0.3 mm
01:30 AM 59.2°F15.1°C 58.5°F14.7°C 98% 4.0 mph NNW6.4 kmh NNW 9.0 mph14.5 kmh 30.09 in1019.0 mb 0.00 in0.0 mm 0.00 in0.0 mm 0.01 in0.3 mm
01:33 AM 59.2°F15.1°C 58.5°F14.7°C 98% 4.0 mph NNW6.4 kmh NNW 9.0 mph14.5 kmh 30.09 in1019.0 mb 0.00 in0.0 mm 0.00 in0.0 mm 0.01 in0.3 mm
01:36 AM 59.0°F15.0°C 58.5°F14.7°C 98% 4.0 mph NNW6.4 kmh NNW 9.0 mph14.5 kmh 30.09 in1019.0 mb 0.00 in0.0 mm 0.00 in0.0 mm 0.01 in0.3 mm
01:39 AM 58.8°F14.9°C 58.3°F14.6°C 98% 4.0 mph NNW6.4 kmh NNW 9.0 mph14.5 kmh 30.09 in1019.0 mb 0.00 in0.0 mm 0.00 in0.0 mm 0.01 in0.3 mm
01:42 AM 58.8°F14.9°C 58.8°F14.9°C 100% 5.0 mph NNW8.0 kmh NNW 11.0 mph17.7 kmh 30.09 in1019.0 mb 0.00 in0.0 mm 0.00 in0.0 mm 0.01 in0.3 mm
01:45 AM 58.8°F14.9°C 58.3°F14.6°C 98% 5.0 mph NNW8.0 kmh NNW 11.0 mph17.7 kmh 30.09 in1019.0 mb 0.00 in0.0 mm 0.00 in0.0 mm 0.01 in0.3 mm
01:48 AM 58.8°F14.9°C 58.3°F14.6°C 98% 6.0 mph NNW9.7 kmh NNW 11.0 mph17.7 kmh 30.09 in1019.0 mb 0.00 in0.0 mm 0.00 in0.0 mm 0.01 in0.3 mm
01:51 AM 58.6°F14.8°C 58.1°F14.5°C 98% 6.0 mph NNW9.7 kmh NNW 11.0 mph17.7 kmh 30.09 in1019.0 mb 0.00 in0.0 mm 0.00 in0.0 mm 0.01 in0.3 mm
01:54 AM 58.6°F14.8°C 58.1°F14.5°C 98% 7.0 mph NNW11.3 kmh NNW 12.0 mph19.3 kmh 30.09 in1019.0 mb 0.00 in0.0 mm 0.00 in0.0 mm 0.01 in0.3 mm
01:57 AM 58.6°F14.8°C 58.1°F14.5°C 98% 7.0 mph NNW11.3 kmh NNW 12.0 mph19.3 kmh 30.09 in1019.0 mb 0.00 in0.0 mm 0.00 in0.0 mm 0.01 in0.3 mm
02:00 AM 58.6°F14.8°C 58.1°F14.5°C 98% 8.0 mph NNW12.9 kmh NNW 12.0 mph19.3 kmh 30.09 in1019.0 mb 0.00 in0.0 mm 0.00 in0.0 mm 0.01 in0.3 mm
02:03 AM 58.6°F14.8°C 58.1°F14.5°C 98% 8.0 mph NNW12.9 kmh NNW 12.0 mph19.3 kmh 30.09 in1019.0 mb 0.00 in0.0 mm 0.00 in0.0 mm 0.01 in0.3 mm
02:06 AM 58.6°F14.8°C 58.1°F14.5°C 98% 8.0 mph NNW12.9 kmh NNW 12.0 mph19.3 kmh 30.09 in1019.0 mb 0.00 in0.0 mm 0.00 in0.0 mm 0.01 in0.3 mm
02:09 AM 58.5°F14.7°C 57.9°F14.4°C 98% 8.0 mph NNW12.9 kmh NNW 12.0 mph19.3 kmh 30.09 in1019.0 mb 0.00 in0.0 mm 0.00 in0.0 mm 0.01 in0.3 mm
02:12 AM 58.5°F14.7°C 57.9°F14.4°C 98% 9.0 mph NNW14.5 kmh NNW 14.0 mph22.5 kmh 30.09 in1019.0 mb 0.00 in0.0 mm 0.00 in0.0 mm 0.01 in0.3 mm
02:15 AM 58.5°F14.7°C 57.9°F14.4°C 98% 9.0 mph NNW14.5 kmh NNW 14.0 mph22.5 kmh 30.09 in1019.0 mb 0.00 in0.0 mm 0.00 in0.0 mm 0.01 in0.3 mm
02:18 AM 58.3°F14.6°C 57.7°F14.3°C 98% 9.0 mph NNW14.5 kmh NNW 14.0 mph22.5 kmh 30.09 in1019.0 mb 0.00 in0.0 mm 0.00 in0.0 mm 0.01 in0.3 mm
02:21 AM 58.3°F14.6°C 57.6°F14.2°C 98% 10.0 mph NNW16.1 kmh NNW 14.0 mph22.5 kmh 30.09 in1019.0 mb 0.00 in0.0 mm 0.00 in0.0 mm 0.01 in0.3 mm
02:24 AM 58.1°F14.5°C 57.6°F14.2°C 98% 10.0 mph NNW16.1 kmh NNW 15.0 mph24.1 kmh 30.09 in1019.0 mb 0.00 in0.0 mm 0.00 in0.0 mm 0.01 in0.3 mm
02:27 AM 58.1°F14.5°C 57.6°F14.2°C 98% 11.0 mph NNW17.7 kmh NNW 15.0 mph24.1 kmh 30.09 in1019.0 mb 0.00 in0.0 mm 0.00 in0.0 mm 0.01 in0.3 mm
02:30 AM 57.9°F14.4°C 57.4°F14.1°C 98% 11.0 mph NNW17.7 kmh NNW 15.0 mph24.1 kmh 30.09 in1019.0 mb 0.00 in0.0 mm 0.00 in0.0 mm 0.01 in0.3 mm
02:33 AM 57.7°F14.3°C 57.2°F14.0°C 98% 11.0 mph NNW17.7 kmh NNW 15.0 mph24.1 kmh 30.09 in1019.0 mb 0.00 in0.0 mm 0.00 in0.0 mm 0.01 in0.3 mm
02:36 AM 57.7°F14.3°C 57.2°F14.0°C 98% 11.0 mph NNW17.7 kmh NNW 15.0 mph24.1 kmh 30.09 in1019.0 mb 0.00 in0.0 mm 0.00 in0.0 mm 0.01 in0.3 mm
02:39 AM 57.7°F14.3°C 57.2°F14.0°C 98% 10.0 mph NNW16.1 kmh NNW 14.0 mph22.5 kmh 30.09 in1019.0 mb 0.00 in0.0 mm 0.00 in0.0 mm 0.01 in0.3 mm
02:42 AM 57.7°F14.3°C 57.2°F14.0°C 98% 10.0 mph NNW16.1 kmh NNW 14.0 mph22.5 kmh 30.09 in1019.0 mb 0.00 in0.0 mm 0.00 in0.0 mm 0.01 in0.3 mm
02:45 AM 57.7°F14.3°C 57.2°F14.0°C 98% 10.0 mph NNW16.1 kmh NNW 14.0 mph22.5 kmh 30.09 in1019.0 mb 0.00 in0.0 mm 0.00 in0.0 mm 0.01 in0.3 mm
02:48 AM 57.7°F14.3°C 57.2°F14.0°C 98% 10.0 mph NNW16.1 kmh NNW 13.0 mph20.9 kmh 30.09 in1019.0 mb 0.00 in0.0 mm 0.00 in0.0 mm 0.01 in0.3 mm
02:51 AM 57.7°F14.3°C 57.2°F14.0°C 98% 10.0 mph NNW16.1 kmh NNW 13.0 mph20.9 kmh 30.09 in1019.0 mb 0.00 in0.0 mm 0.00 in0.0 mm 0.01 in0.3 mm
02:54 AM 57.7°F14.3°C 57.2°F14.0°C 98% 10.0 mph NNW16.1 kmh NNW 13.0 mph20.9 kmh 30.09 in1019.0 mb 0.00 in0.0 mm 0.00 in0.0 mm 0.01 in0.3 mm
02:57 AM 57.7°F14.3°C 57.2°F14.0°C 98% 9.0 mph NNW14.5 kmh NNW 13.0 mph20.9 kmh 30.09 in1019.0 mb 0.00 in0.0 mm 0.00 in0.0 mm 0.01 in0.3 mm
03:00 AM 57.7°F14.3°C 57.2°F14.0°C 98% 9.0 mph NNW14.5 kmh NNW 13.0 mph20.9 kmh 30.09 in1019.0 mb 0.00 in0.0 mm 0.00 in0.0 mm 0.01 in0.3 mm
03:03 AM 57.7°F14.3°C 57.2°F14.0°C 98% 10.0 mph NNW16.1 kmh NNW 13.0 mph20.9 kmh 30.09 in1019.0 mb 0.00 in0.0 mm 0.00 in0.0 mm 0.01 in0.3 mm
03:06 AM 57.7°F14.3°C 57.2°F14.0°C 98% 10.0 mph NNW16.1 kmh NNW 13.0 mph20.9 kmh 30.09 in1019.0 mb 0.00 in0.0 mm 0.00 in0.0 mm 0.01 in0.3 mm
03:09 AM 57.7°F14.3°C 57.2°F14.0°C 98% 10.0 mph NNW16.1 kmh NNW 13.0 mph20.9 kmh 30.09 in1019.0 mb 0.00 in0.0 mm 0.00 in0.0 mm 0.01 in0.3 mm
03:12 AM 57.7°F14.3°C 57.2°F14.0°C 98% 10.0 mph NNW16.1 kmh NNW 13.0 mph20.9 kmh 30.09 in1019.0 mb 0.00 in0.0 mm 0.00 in0.0 mm 0.01 in0.3 mm
03:15 AM 57.7°F14.3°C 57.2°F14.0°C 98% 10.0 mph NNW16.1 kmh NNW 13.0 mph20.9 kmh 30.09 in1019.0 mb 0.00 in0.0 mm 0.00 in0.0 mm 0.01 in0.3 mm
03:18 AM 57.7°F14.3°C 57.2°F14.0°C 98% 10.0 mph NNW16.1 kmh NNW 13.0 mph20.9 kmh 30.09 in1019.0 mb 0.00 in0.0 mm 0.00 in0.0 mm 0.01 in0.3 mm
03:21 AM 57.7°F14.3°C 57.2°F14.0°C 98% 10.0 mph NNW16.1 kmh NNW 13.0 mph20.9 kmh 30.09 in1019.0 mb 0.00 in0.0 mm 0.00 in0.0 mm 0.01 in0.3 mm
03:24 AM 57.7°F14.3°C 57.2°F14.0°C 98% 10.0 mph NNW16.1 kmh NNW 13.0 mph20.9 kmh 30.10 in1019.3 mb 0.00 in0.0 mm 0.00 in0.0 mm 0.01 in0.3 mm
03:27 AM 57.7°F14.3°C 57.2°F14.0°C 98% 9.0 mph NNW14.5 kmh NNW 12.0 mph19.3 kmh 30.10 in1019.3 mb 0.00 in0.0 mm 0.00 in0.0 mm 0.01 in0.3 mm
03:30 AM 57.9°F14.4°C 57.4°F14.1°C 98% 9.0 mph NNW14.5 kmh NNW 11.0 mph17.7 kmh 30.10 in1019.3 mb 0.00 in0.0 mm 0.00 in0.0 mm 0.01 in0.3 mm
03:33 AM 57.9°F14.4°C 57.4°F14.1°C 98% 8.0 mph NNW12.9 kmh NNW 11.0 mph17.7 kmh 30.10 in1019.3 mb 0.00 in0.0 mm 0.00 in0.0 mm 0.01 in0.3 mm
03:36 AM 57.9°F14.4°C 57.4°F14.1°C 98% 8.0 mph NNW12.9 kmh NNW 11.0 mph17.7 kmh 30.10 in1019.3 mb 0.01 in0.3 mm 0.20 in5.1 mm 0.02 in0.5 mm
03:39 AM 57.9°F14.4°C 57.4°F14.1°C 98% 8.0 mph NNW12.9 kmh NNW 11.0 mph17.7 kmh 30.10 in1019.3 mb 0.01 in0.3 mm 0.00 in0.0 mm 0.02 in0.5 mm
03:42 AM 57.9°F14.4°C 57.4°F14.1°C 98% 8.0 mph NNW12.9 kmh NNW 11.0 mph17.7 kmh 30.10 in1019.3 mb 0.01 in0.3 mm 0.00 in0.0 mm 0.02 in0.5 mm
03:45 AM 57.7°F14.3°C 57.2°F14.0°C 98% 8.0 mph NNW12.9 kmh NNW 11.0 mph17.7 kmh 30.10 in1019.3 mb 0.01 in0.3 mm 0.00 in0.0 mm 0.02 in0.5 mm
03:48 AM 57.9°F14.4°C 57.4°F14.1°C 98% 8.0 mph NNW12.9 kmh NNW 11.0 mph17.7 kmh 30.10 in1019.3 mb 0.01 in0.3 mm 0.00 in0.0 mm 0.02 in0.5 mm
03:51 AM 57.9°F14.4°C 57.4°F14.1°C 98% 7.0 mph NNW11.3 kmh NNW 10.0 mph16.1 kmh 30.10 in1019.3 mb 0.01 in0.3 mm 0.00 in0.0 mm 0.02 in0.5 mm
03:54 AM 57.9°F14.4°C 57.4°F14.1°C 98% 7.0 mph NNW11.3 kmh NNW 10.0 mph16.1 kmh 30.10 in1019.3 mb 0.01 in0.3 mm 0.00 in0.0 mm 0.02 in0.5 mm
03:57 AM 57.9°F14.4°C 57.4°F14.1°C 98% 6.0 mph NNW9.7 kmh NNW 10.0 mph16.1 kmh 30.10 in1019.3 mb 0.01 in0.3 mm 0.00 in0.0 mm 0.02 in0.5 mm
04:00 AM 57.9°F14.4°C 57.4°F14.1°C 98% 6.0 mph NNW9.7 kmh NNW 9.0 mph14.5 kmh 30.10 in1019.3 mb 0.01 in0.3 mm 0.00 in0.0 mm 0.02 in0.5 mm
04:03 AM 57.9°F14.4°C 57.4°F14.1°C 98% 5.0 mph NNW8.0 kmh NNW 9.0 mph14.5 kmh 30.10 in1019.3 mb 0.01 in0.3 mm 0.00 in0.0 mm 0.02 in0.5 mm
04:06 AM 57.9°F14.4°C 57.4°F14.1°C 98% 6.0 mph NNW9.7 kmh NNW 10.0 mph16.1 kmh 30.10 in1019.3 mb 0.01 in0.3 mm 0.00 in0.0 mm 0.02 in0.5 mm
04:09 AM 57.9°F14.4°C 57.4°F14.1°C 98% 6.0 mph NNW9.7 kmh NNW 10.0 mph16.1 kmh 30.10 in1019.3 mb 0.01 in0.3 mm 0.00 in0.0 mm 0.02 in0.5 mm
04:12 AM 57.9°F14.4°C 57.4°F14.1°C 98% 6.0 mph NNW9.7 kmh NNW 10.0 mph16.1 kmh 30.10 in1019.3 mb 0.01 in0.3 mm 0.00 in0.0 mm 0.02 in0.5 mm
04:15 AM 57.9°F14.4°C 57.4°F14.1°C 98% 6.0 mph NNW9.7 kmh NNW 10.0 mph16.1 kmh 30.10 in1019.3 mb 0.01 in0.3 mm 0.00 in0.0 mm 0.02 in0.5 mm
04:18 AM 57.7°F14.3°C 57.2°F14.0°C 98% 6.0 mph NNW9.7 kmh NNW 10.0 mph16.1 kmh 30.10 in1019.3 mb 0.01 in0.3 mm 0.00 in0.0 mm 0.02 in0.5 mm
04:21 AM 57.7°F14.3°C 57.2°F14.0°C 98% 6.0 mph NNW9.7 kmh NNW 10.0 mph16.1 kmh 30.10 in1019.3 mb 0.01 in0.3 mm 0.00 in0.0 mm 0.02 in0.5 mm
04:24 AM 57.7°F14.3°C 57.2°F14.0°C 98% 6.0 mph NNW9.7 kmh NNW 10.0 mph16.1 kmh 30.10 in1019.3 mb 0.01 in0.3 mm 0.00 in0.0 mm 0.02 in0.5 mm
04:27 AM 57.7°F14.3°C 57.2°F14.0°C 98% 6.0 mph NNW9.7 kmh NNW 10.0 mph16.1 kmh 30.10 in1019.3 mb 0.01 in0.3 mm 0.00 in0.0 mm 0.02 in0.5 mm
04:30 AM 57.6°F14.2°C 57.0°F13.9°C 98% 7.0 mph NNW11.3 kmh NNW 11.0 mph17.7 kmh 30.10 in1019.3 mb 0.01 in0.3 mm 0.00 in0.0 mm 0.02 in0.5 mm
04:33 AM 57.6°F14.2°C 57.0°F13.9°C 98% 7.0 mph NNW11.3 kmh NNW 13.0 mph20.9 kmh 30.10 in1019.3 mb 0.01 in0.3 mm 0.00 in0.0 mm 0.02 in0.5 mm
04:36 AM 57.6°F14.2°C 57.0°F13.9°C 98% 8.0 mph NNW12.9 kmh NNW 13.0 mph20.9 kmh 30.10 in1019.3 mb 0.00 in0.0 mm 0.00 in0.0 mm 0.02 in0.5 mm
04:39 AM 57.4°F14.1°C 56.8°F13.8°C 98% 8.0 mph NNW12.9 kmh NNW 13.0 mph20.9 kmh 30.10 in1019.3 mb 0.00 in0.0 mm 0.00 in0.0 mm 0.02 in0.5 mm
04:42 AM 57.4°F14.1°C 56.7°F13.7°C 98% 8.0 mph NNW12.9 kmh NNW 13.0 mph20.9 kmh 30.10 in1019.3 mb 0.00 in0.0 mm 0.00 in0.0 mm 0.02 in0.5 mm
04:45 AM 57.4°F14.1°C 56.7°F13.7°C 98% 8.0 mph NNW12.9 kmh NNW 11.0 mph17.7 kmh 30.10 in1019.3 mb 0.00 in0.0 mm 0.00 in0.0 mm 0.02 in0.5 mm
04:48 AM 57.2°F14.0°C 56.7°F13.7°C 98% 7.0 mph NNW11.3 kmh NNW 11.0 mph17.7 kmh 30.10 in1019.3 mb 0.00 in0.0 mm 0.00 in0.0 mm 0.02 in0.5 mm
04:51 AM 57.2°F14.0°C 56.7°F13.7°C 98% 8.0 mph NNW12.9 kmh NNW 11.0 mph17.7 kmh 30.10 in1019.3 mb 0.00 in0.0 mm 0.00 in0.0 mm 0.02 in0.5 mm
04:54 AM 57.2°F14.0°C 56.7°F13.7°C 98% 7.0 mph NNW11.3 kmh NNW 11.0 mph17.7 kmh 30.10 in1019.3 mb 0.00 in0.0 mm 0.00 in0.0 mm 0.02 in0.5 mm
04:57 AM 57.2°F14.0°C 56.7°F13.7°C 98% 8.0 mph NNW12.9 kmh NNW 12.0 mph19.3 kmh 30.10 in1019.3 mb 0.00 in0.0 mm 0.00 in0.0 mm 0.02 in0.5 mm
05:00 AM 57.0°F13.9°C 56.5°F13.6°C 98% 8.0 mph NNW12.9 kmh NNW 12.0 mph19.3 kmh 30.10 in1019.3 mb 0.00 in0.0 mm 0.00 in0.0 mm 0.02 in0.5 mm
05:03 AM 57.0°F13.9°C 56.5°F13.6°C 98% 8.0 mph NNW12.9 kmh NNW 12.0 mph19.3 kmh 30.10 in1019.3 mb 0.00 in0.0 mm 0.00 in0.0 mm 0.02 in0.5 mm
05:06 AM 57.0°F13.9°C 56.5°F13.6°C 98% 8.0 mph NNW12.9 kmh NNW 11.0 mph17.7 kmh 30.10 in1019.3 mb 0.00 in0.0 mm 0.00 in0.0 mm 0.02 in0.5 mm
05:09 AM 57.2°F14.0°C 56.7°F13.7°C 98% 8.0 mph NNW12.9 kmh NNW 11.0 mph17.7 kmh 30.10 in1019.3 mb 0.00 in0.0 mm 0.00 in0.0 mm 0.02 in0.5 mm
05:12 AM 57.0°F13.9°C 56.5°F13.6°C 98% 8.0 mph NNW12.9 kmh NNW 11.0 mph17.7 kmh 30.10 in1019.3 mb 0.00 in0.0 mm 0.00 in0.0 mm 0.02 in0.5 mm
05:15 AM 57.0°F13.9°C 56.5°F13.6°C 98% 8.0 mph NNW12.9 kmh NNW 11.0 mph17.7 kmh 30.10 in1019.3 mb 0.00 in0.0 mm 0.00 in0.0 mm 0.02 in0.5 mm
05:18 AM 57.2°F14.0°C 56.7°F13.7°C 98% 8.0 mph NNW12.9 kmh NNW 11.0 mph17.7 kmh 30.10 in1019.3 mb 0.00 in0.0 mm 0.00 in0.0 mm 0.02 in0.5 mm
05:21 AM 57.0°F13.9°C 56.5°F13.6°C 98% 7.0 mph NNW11.3 kmh NNW 10.0 mph16.1 kmh 30.11 in1019.6 mb 0.00 in0.0 mm 0.00 in0.0 mm 0.02 in0.5 mm
05:24 AM 57.0°F13.9°C 56.5°F13.6°C 98% 7.0 mph NNW11.3 kmh NNW 11.0 mph17.7 kmh 30.11 in1019.6 mb 0.00 in0.0 mm 0.00 in0.0 mm 0.02 in0.5 mm
05:27 AM 57.0°F13.9°C 56.5°F13.6°C 98% 7.0 mph NNW11.3 kmh NNW 11.0 mph17.7 kmh 30.11 in1019.6 mb 0.00 in0.0 mm 0.00 in0.0 mm 0.02 in0.5 mm
05:30 AM 57.0°F13.9°C 56.5°F13.6°C 98% 7.0 mph NNW11.3 kmh NNW 11.0 mph17.7 kmh 30.11 in1019.6 mb 0.00 in0.0 mm 0.00 in0.0 mm 0.02 in0.5 mm
05:33 AM 57.0°F13.9°C 56.5°F13.6°C 98% 6.0 mph NNW9.7 kmh NNW 11.0 mph17.7 kmh 30.11 in1019.6 mb 0.00 in0.0 mm 0.00 in0.0 mm 0.02 in0.5 mm
05:36 AM 57.0°F13.9°C 56.5°F13.6°C 98% 6.0 mph NNW9.7 kmh NNW 10.0 mph16.1 kmh 30.11 in1019.6 mb 0.00 in0.0 mm 0.00 in0.0 mm 0.02 in0.5 mm
05:39 AM 57.0°F13.9°C 56.5°F13.6°C 98% 6.0 mph NNW9.7 kmh NNW 11.0 mph17.7 kmh 30.11 in1019.6 mb 0.00 in0.0 mm 0.00 in0.0 mm 0.02 in0.5 mm
05:42 AM 57.0°F13.9°C 56.5°F13.6°C 98% 6.0 mph NNW9.7 kmh NNW 11.0 mph17.7 kmh 30.11 in1019.6 mb 0.00 in0.0 mm 0.00 in0.0 mm 0.02 in0.5 mm
05:45 AM 57.0°F13.9°C 56.5°F13.6°C 98% 6.0 mph NNW9.7 kmh NNW 11.0 mph17.7 kmh 30.11 in1019.6 mb 0.00 in0.0 mm 0.00 in0.0 mm 0.02 in0.5 mm
05:48 AM 56.8°F13.8°C 56.3°F13.5°C 98% 6.0 mph NNW9.7 kmh NNW 10.0 mph16.1 kmh 30.11 in1019.6 mb 0.00 in0.0 mm 0.00 in0.0 mm 0.02 in0.5 mm
05:51 AM 56.8°F13.8°C 56.3°F13.5°C 98% 6.0 mph NNW9.7 kmh NNW 10.0 mph16.1 kmh 30.11 in1019.6 mb 0.00 in0.0 mm 0.00 in0.0 mm 0.02 in0.5 mm
05:54 AM 56.7°F13.7°C 56.1°F13.4°C 98% 6.0 mph NNW9.7 kmh NNW 10.0 mph16.1 kmh 30.11 in1019.6 mb 0.00 in0.0 mm 0.00 in0.0 mm 0.02 in0.5 mm
05:57 AM 56.5°F13.6°C 55.9°F13.3°C 98% 6.0 mph NNW9.7 kmh NNW 10.0 mph16.1 kmh 30.11 in1019.6 mb 0.00 in0.0 mm 0.00 in0.0 mm 0.02 in0.5 mm
06:00 AM 56.5°F13.6°C 55.8°F13.2°C 98% 7.0 mph NNW11.3 kmh NNW 10.0 mph16.1 kmh 30.11 in1019.6 mb 0.00 in0.0 mm 0.00 in0.0 mm 0.02 in0.5 mm
06:03 AM 56.3°F13.5°C 55.4°F13.0°C 97% 7.0 mph NNW11.3 kmh NNW 10.0 mph16.1 kmh 30.12 in1020.0 mb 0.00 in0.0 mm 0.00 in0.0 mm 0.02 in0.5 mm
06:06 AM 56.1°F13.4°C 55.6°F13.1°C 98% 6.0 mph NNW9.7 kmh NNW 10.0 mph16.1 kmh 30.12 in1020.0 mb 0.00 in0.0 mm 0.00 in0.0 mm 0.02 in0.5 mm
06:09 AM 56.1°F13.4°C 55.6°F13.1°C 98% 5.0 mph NNW8.0 kmh NNW 10.0 mph16.1 kmh 30.12 in1020.0 mb 0.00 in0.0 mm 0.00 in0.0 mm 0.02 in0.5 mm
06:12 AM 56.1°F13.4°C 55.6°F13.1°C 98% 5.0 mph NNW8.0 kmh NNW 9.0 mph14.5 kmh 30.12 in1020.0 mb 0.00 in0.0 mm 0.00 in0.0 mm 0.02 in0.5 mm
06:15 AM 56.1°F13.4°C 55.6°F13.1°C 98% 6.0 mph NNW9.7 kmh NNW 9.0 mph14.5 kmh 30.12 in1020.0 mb 0.00 in0.0 mm 0.00 in0.0 mm 0.02 in0.5 mm
06:18 AM 55.9°F13.3°C 55.4°F13.0°C 98% 7.0 mph NNW11.3 kmh NNW 12.0 mph19.3 kmh 30.12 in1020.0 mb 0.00 in0.0 mm 0.00 in0.0 mm 0.02 in0.5 mm
06:21 AM 55.9°F13.3°C 55.4°F13.0°C 98% 8.0 mph NNW12.9 kmh NNW 12.0 mph19.3 kmh 30.12 in1020.0 mb 0.00 in0.0 mm 0.00 in0.0 mm 0.02 in0.5 mm
06:24 AM 55.9°F13.3°C 55.4°F13.0°C 98% 8.0 mph NNW12.9 kmh NNW 12.0 mph19.3 kmh 30.12 in1020.0 mb 0.00 in0.0 mm 0.00 in0.0 mm 0.02 in0.5 mm
06:27 AM 55.8°F13.2°C 55.2°F12.9°C 98% 8.0 mph NNW12.9 kmh NNW 12.0 mph19.3 kmh 30.12 in1020.0 mb 0.00 in0.0 mm 0.00 in0.0 mm 0.02 in0.5 mm
06:30 AM 55.8°F13.2°C 55.2°F12.9°C 98% 8.0 mph NNW12.9 kmh NNW 12.0 mph19.3 kmh 30.12 in1020.0 mb 0.00 in0.0 mm 0.00 in0.0 mm 0.02 in0.5 mm
06:33 AM 55.8°F13.2°C 55.2°F12.9°C 98% 8.0 mph NNW12.9 kmh NNW 12.0 mph19.3 kmh 30.12 in1020.0 mb 0.00 in0.0 mm 0.00 in0.0 mm 0.02 in0.5 mm
06:36 AM 55.9°F13.3°C 55.4°F13.0°C 98% 8.0 mph NNW12.9 kmh NNW 12.0 mph19.3 kmh 30.13 in1020.3 mb 0.00 in0.0 mm 0.00 in0.0 mm 0.02 in0.5 mm
06:39 AM 55.9°F13.3°C 55.4°F13.0°C 98% 8.0 mph NNW12.9 kmh NNW 12.0 mph19.3 kmh 30.13 in1020.3 mb 0.00 in0.0 mm 0.00 in0.0 mm 0.02 in0.5 mm
06:42 AM 55.9°F13.3°C 55.4°F13.0°C 98% 7.0 mph NNW11.3 kmh NNW 11.0 mph17.7 kmh 30.13 in1020.3 mb 0.00 in0.0 mm 0.00 in0.0 mm 0.02 in0.5 mm
06:45 AM 55.9°F13.3°C 55.4°F13.0°C 98% 7.0 mph NNW11.3 kmh NNW 11.0 mph17.7 kmh 30.13 in1020.3 mb 0.00 in0.0 mm 0.00 in0.0 mm 0.02 in0.5 mm
06:48 AM 55.9°F13.3°C 55.4°F13.0°C 98% 7.0 mph N11.3 kmh N 10.0 mph16.1 kmh 30.13 in1020.3 mb 0.00 in0.0 mm 0.00 in0.0 mm 0.02 in0.5 mm
06:51 AM 55.9°F13.3°C 55.4°F13.0°C 98% 6.0 mph N9.7 kmh N 10.0 mph16.1 kmh 30.13 in1020.3 mb 0.00 in0.0 mm 0.00 in0.0 mm 0.02 in0.5 mm
06:54 AM 56.1°F13.4°C 55.6°F13.1°C 98% 6.0 mph N9.7 kmh N 10.0 mph16.1 kmh 30.13 in1020.3 mb 0.00 in0.0 mm 0.00 in0.0 mm 0.02 in0.5 mm
06:57 AM 56.1°F13.4°C 55.6°F13.1°C 98% 5.0 mph N8.0 kmh N 10.0 mph16.1 kmh 30.13 in1020.3 mb 0.00 in0.0 mm 0.00 in0.0 mm 0.02 in0.5 mm
07:00 AM 56.3°F13.5°C 55.8°F13.2°C 98% 5.0 mph NNW8.0 kmh NNW 10.0 mph16.1 kmh 30.13 in1020.3 mb 0.00 in0.0 mm 0.00 in0.0 mm 0.02 in0.5 mm
07:03 AM 56.3°F13.5°C 55.8°F13.2°C 98% 4.0 mph N6.4 kmh N 8.0 mph12.9 kmh 30.13 in1020.3 mb 0.00 in0.0 mm 0.00 in0.0 mm 0.02 in0.5 mm
07:06 AM 56.5°F13.6°C 55.8°F13.2°C 98% 3.0 mph N4.8 kmh N 8.0 mph12.9 kmh 30.13 in1020.3 mb 0.00 in0.0 mm 0.00 in0.0 mm 0.02 in0.5 mm
07:09 AM 56.5°F13.6°C 55.8°F13.2°C 98% 4.0 mph NNW6.4 kmh NNW 8.0 mph12.9 kmh 30.13 in1020.3 mb 0.00 in0.0 mm 0.00 in0.0 mm 0.02 in0.5 mm
07:12 AM 56.5°F13.6°C 55.8°F13.2°C 98% 3.0 mph NNW4.8 kmh NNW 7.0 mph11.3 kmh 30.13 in1020.3 mb 0.00 in0.0 mm 0.00 in0.0 mm 0.02 in0.5 mm
07:15 AM 56.3°F13.5°C 55.8°F13.2°C 98% 4.0 mph NNW6.4 kmh NNW 7.0 mph11.3 kmh 30.13 in1020.3 mb 0.00 in0.0 mm 0.00 in0.0 mm 0.02 in0.5 mm
07:18 AM 56.3°F13.5°C 55.8°F13.2°C 98% 4.0 mph N6.4 kmh N 8.0 mph12.9 kmh 30.13 in1020.3 mb 0.00 in0.0 mm 0.00 in0.0 mm 0.02 in0.5 mm
07:21 AM 56.5°F13.6°C 55.8°F13.2°C 98% 4.0 mph N6.4 kmh N 8.0 mph12.9 kmh 30.13 in1020.3 mb 0.00 in0.0 mm 0.00 in0.0 mm 0.02 in0.5 mm
07:24 AM 56.7°F13.7°C 56.1°F13.4°C 98% 4.0 mph N6.4 kmh N 9.0 mph14.5 kmh 30.13 in1020.3 mb 0.00 in0.0 mm 0.00 in0.0 mm 0.02 in0.5 mm
07:27 AM 56.7°F13.7°C 56.1°F13.4°C 98% 4.0 mph N6.4 kmh N 9.0 mph14.5 kmh 30.14 in1020.7 mb 0.00 in0.0 mm 0.00 in0.0 mm 0.02 in0.5 mm
07:30 AM 56.7°F13.7°C 56.1°F13.4°C 98% 4.0 mph N6.4 kmh N 9.0 mph14.5 kmh 30.14 in1020.7 mb 0.00 in0.0 mm 0.00 in0.0 mm 0.02 in0.5 mm
07:33 AM 56.8°F13.8°C 56.3°F13.5°C 98% 3.0 mph N4.8 kmh N 9.0 mph14.5 kmh 30.14 in1020.7 mb 0.00 in0.0 mm 0.00 in0.0 mm 0.02 in0.5 mm
07:36 AM 57.0°F13.9°C 56.5°F13.6°C 98% 3.0 mph NNW4.8 kmh NNW 5.0 mph8.0 kmh 30.14 in1020.7 mb 0.00 in0.0 mm 0.00 in0.0 mm 0.02 in0.5 mm
07:39 AM 57.0°F13.9°C 56.5°F13.6°C 98% 2.0 mph NNW3.2 kmh NNW 5.0 mph8.0 kmh 30.14 in1020.7 mb 0.00 in0.0 mm 0.00 in0.0 mm 0.02 in0.5 mm
07:42 AM 57.0°F13.9°C 56.5°F13.6°C 98% 3.0 mph NNW4.8 kmh NNW 8.0 mph12.9 kmh 30.14 in1020.7 mb 0.00 in0.0 mm 0.00 in0.0 mm 0.02 in0.5 mm
07:45 AM 57.0°F13.9°C 56.5°F13.6°C 98% 2.0 mph NNW3.2 kmh NNW 8.0 mph12.9 kmh 30.14 in1020.7 mb 0.00 in0.0 mm 0.00 in0.0 mm 0.02 in0.5 mm
07:48 AM 57.0°F13.9°C 56.5°F13.6°C 98% 2.0 mph NNW3.2 kmh NNW 8.0 mph12.9 kmh 30.14 in1020.7 mb 0.00 in0.0 mm 0.00 in0.0 mm 0.02 in0.5 mm
07:51 AM 57.0°F13.9°C 56.5°F13.6°C 98% 2.0 mph NNW3.2 kmh NNW 8.0 mph12.9 kmh 30.14 in1020.7 mb 0.00 in0.0 mm 0.00 in0.0 mm 0.02 in0.5 mm
07:54 AM 57.0°F13.9°C 56.5°F13.6°C 98% 2.0 mph NNW3.2 kmh NNW 5.0 mph8.0 kmh 30.14 in1020.7 mb 0.00 in0.0 mm 0.00 in0.0 mm 0.02 in0.5 mm
07:57 AM 57.2°F14.0°C 56.7°F13.7°C 98% 2.0 mph N3.2 kmh N 6.0 mph9.7 kmh 30.14 in1020.7 mb 0.00 in0.0 mm 0.00 in0.0 mm 0.02 in0.5 mm
08:00 AM 57.4°F14.1°C 56.7°F13.7°C 98% 3.0 mph N4.8 kmh N 6.0 mph9.7 kmh 30.14 in1020.7 mb 0.00 in0.0 mm 0.00 in0.0 mm 0.02 in0.5 mm
08:03 AM 57.4°F14.1°C 56.7°F13.7°C 98% 4.0 mph N6.4 kmh N 6.0 mph9.7 kmh 30.15 in1021.0 mb 0.00 in0.0 mm 0.00 in0.0 mm 0.02 in0.5 mm
08:06 AM 57.4°F14.1°C 56.8°F13.8°C 98% 4.0 mph N6.4 kmh N 6.0 mph9.7 kmh 30.14 in1020.7 mb 0.00 in0.0 mm 0.00 in0.0 mm 0.02 in0.5 mm
08:09 AM 57.4°F14.1°C 56.8°F13.8°C 98% 4.0 mph N6.4 kmh N 6.0 mph9.7 kmh 30.15 in1021.0 mb 0.00 in0.0 mm 0.00 in0.0 mm 0.02 in0.5 mm
08:12 AM 57.6°F14.2°C 57.0°F13.9°C 98% 3.0 mph N4.8 kmh N 6.0 mph9.7 kmh 30.15 in1021.0 mb 0.00 in0.0 mm 0.00 in0.0 mm 0.02 in0.5 mm
08:15 AM 57.7°F14.3°C 57.2°F14.0°C 98% 3.0 mph N4.8 kmh N 5.0 mph8.0 kmh 30.15 in1021.0 mb 0.00 in0.0 mm 0.00 in0.0 mm 0.02 in0.5 mm
08:18 AM 57.7°F14.3°C 57.2°F14.0°C 98% 3.0 mph N4.8 kmh N 5.0 mph8.0 kmh 30.15 in1021.0 mb 0.00 in0.0 mm 0.00 in0.0 mm 0.02 in0.5 mm
08:21 AM 57.9°F14.4°C 57.4°F14.1°C 98% 2.0 mph N3.2 kmh N 5.0 mph8.0 kmh 30.15 in1021.0 mb 0.00 in0.0 mm 0.00 in0.0 mm 0.02 in0.5 mm
08:24 AM 58.1°F14.5°C 57.6°F14.2°C 98% 2.0 mph N3.2 kmh N 5.0 mph8.0 kmh 30.15 in1021.0 mb 0.00 in0.0 mm 0.00 in0.0 mm 0.02 in0.5 mm
08:27 AM 58.3°F14.6°C 57.6°F14.2°C 98% 1.0 mph N1.6 kmh N 5.0 mph8.0 kmh 30.15 in1021.0 mb 0.00 in0.0 mm 0.00 in0.0 mm 0.02 in0.5 mm
08:30 AM 58.3°F14.6°C 57.6°F14.2°C 98% 1.0 mph N1.6 kmh N 4.0 mph6.4 kmh 30.15 in1021.0 mb 0.00 in0.0 mm 0.00 in0.0 mm 0.02 in0.5 mm
08:33 AM 58.3°F14.6°C 57.6°F14.2°C 98% 1.0 mph N1.6 kmh N 4.0 mph6.4 kmh 30.15 in1021.0 mb 0.00 in0.0 mm 0.00 in0.0 mm 0.02 in0.5 mm
08:36 AM 58.3°F14.6°C 57.7°F14.3°C 98% 2.0 mph N3.2 kmh N 5.0 mph8.0 kmh 30.15 in1021.0 mb 0.00 in0.0 mm 0.00 in0.0 mm 0.02 in0.5 mm
08:39 AM 58.3°F14.6°C 57.6°F14.2°C 98% 2.0 mph N3.2 kmh N 5.0 mph8.0 kmh 30.15 in1021.0 mb 0.00 in0.0 mm 0.00 in0.0 mm 0.02 in0.5 mm
08:42 AM 58.3°F14.6°C 57.6°F14.2°C 98% 2.0 mph N3.2 kmh N 5.0 mph8.0 kmh 30.15 in1021.0 mb 0.00 in0.0 mm 0.00 in0.0 mm 0.02 in0.5 mm
08:45 AM 58.3°F14.6°C 57.7°F14.3°C 98% 2.0 mph N3.2 kmh N 5.0 mph8.0 kmh 30.16 in1021.3 mb 0.00 in0.0 mm 0.00 in0.0 mm 0.02 in0.5 mm
08:48 AM 58.3°F14.6°C 57.7°F14.3°C 98% 1.0 mph N1.6 kmh N 4.0 mph6.4 kmh 30.16 in1021.3 mb 0.00 in0.0 mm 0.00 in0.0 mm 0.02 in0.5 mm
08:51 AM 58.3°F14.6°C 57.7°F14.3°C 98% 1.0 mph N1.6 kmh N 4.0 mph6.4 kmh 30.16 in1021.3 mb 0.00 in0.0 mm 0.00 in0.0 mm 0.02 in0.5 mm
08:54 AM 58.5°F14.7°C 57.9°F14.4°C 98% 2.0 mph N3.2 kmh N 4.0 mph6.4 kmh 30.16 in1021.3 mb 0.00 in0.0 mm 0.00 in0.0 mm 0.02 in0.5 mm
08:57 AM 58.5°F14.7°C 57.9°F14.4°C 98% 2.0 mph N3.2 kmh N 4.0 mph6.4 kmh 30.16 in1021.3 mb 0.00 in0.0 mm 0.00 in0.0 mm 0.02 in0.5 mm
09:00 AM 58.8°F14.9°C 58.3°F14.6°C 98% 2.0 mph N3.2 kmh N 4.0 mph6.4 kmh 30.16 in1021.3 mb 0.00 in0.0 mm 0.00 in0.0 mm 0.02 in0.5 mm
09:03 AM 59.2°F15.1°C 58.5°F14.7°C 98% 2.0 mph N3.2 kmh N 6.0 mph9.7 kmh 30.16 in1021.3 mb 0.00 in0.0 mm 0.00 in0.0 mm 0.02 in0.5 mm
09:06 AM 59.2°F15.1°C 58.6°F14.8°C 98% 2.0 mph N3.2 kmh N 6.0 mph9.7 kmh 30.16 in1021.3 mb 0.00 in0.0 mm 0.00 in0.0 mm 0.02 in0.5 mm
09:09 AM 59.4°F15.2°C 58.8°F14.9°C 98% 2.0 mph N3.2 kmh N 6.0 mph9.7 kmh 30.16 in1021.3 mb 0.00 in0.0 mm 0.00 in0.0 mm 0.02 in0.5 mm
09:12 AM 59.4°F15.2°C 58.8°F14.9°C 98% 2.0 mph N3.2 kmh N 6.0 mph9.7 kmh 30.16 in1021.3 mb 0.00 in0.0 mm 0.00 in0.0 mm 0.02 in0.5 mm
09:15 AM 59.5°F15.3°C 59.0°F15.0°C 98% 2.0 mph N3.2 kmh N 4.0 mph6.4 kmh 30.16 in1021.3 mb 0.00 in0.0 mm 0.00 in0.0 mm 0.02 in0.5 mm
09:18 AM 59.5°F15.3°C 59.0°F15.0°C 98% 2.0 mph N3.2 kmh N 4.0 mph6.4 kmh 30.16 in1021.3 mb 0.00 in0.0 mm 0.00 in0.0 mm 0.02 in0.5 mm
09:21 AM 59.7°F15.4°C 59.2°F15.1°C 98% 2.0 mph N3.2 kmh N 4.0 mph6.4 kmh 30.16 in1021.3 mb 0.00 in0.0 mm 0.00 in0.0 mm 0.02 in0.5 mm
09:24 AM 60.1°F15.6°C 59.5°F15.3°C 98% 1.0 mph N1.6 kmh N 4.0 mph6.4 kmh 30.16 in1021.3 mb 0.00 in0.0 mm 0.00 in0.0 mm 0.02 in0.5 mm
09:27 AM 60.6°F15.9°C 60.1°F15.6°C 98% 1.0 mph N1.6 kmh N 4.0 mph6.4 kmh 30.16 in1021.3 mb 0.00 in0.0 mm 0.00 in0.0 mm 0.02 in0.5 mm
09:30 AM 61.0°F16.1°C 60.3°F15.7°C 98% 1.0 mph N1.6 kmh N 3.0 mph4.8 kmh 30.16 in1021.3 mb 0.00 in0.0 mm 0.00 in0.0 mm 0.02 in0.5 mm
09:33 AM 60.8°F16.0°C 60.3°F15.7°C 98% 1.0 mph N1.6 kmh N 3.0 mph4.8 kmh 30.16 in1021.3 mb 0.00 in0.0 mm 0.00 in0.0 mm 0.02 in0.5 mm
09:36 AM 60.6°F15.9°C 59.7°F15.4°C 97% 1.0 mph N1.6 kmh N 3.0 mph4.8 kmh 30.16 in1021.3 mb 0.00 in0.0 mm 0.00 in0.0 mm 0.02 in0.5 mm
09:39 AM 60.6°F15.9°C 59.9°F15.5°C 97% 1.0 mph N1.6 kmh N 3.0 mph4.8 kmh 30.16 in1021.3 mb 0.00 in0.0 mm 0.00 in0.0 mm 0.02 in0.5 mm
09:42 AM 60.6°F15.9°C 59.7°F15.4°C 97% 1.0 mph N1.6 kmh N 3.0 mph4.8 kmh 30.16 in1021.3 mb 0.00 in0.0 mm 0.00 in0.0 mm 0.02 in0.5 mm
09:45 AM 61.0°F16.1°C 60.1°F15.6°C 97% 1.0 mph N1.6 kmh N 3.0 mph4.8 kmh 30.16 in1021.3 mb 0.00 in0.0 mm 0.00 in0.0 mm 0.02 in0.5 mm
09:48 AM 61.3°F16.3°C 60.4°F15.8°C 97% 1.0 mph N1.6 kmh N 3.0 mph4.8 kmh 30.16 in1021.3 mb 0.00 in0.0 mm 0.00 in0.0 mm 0.02 in0.5 mm
09:51 AM 61.9°F16.6°C 61.0°F16.1°C 97% 1.0 mph E1.6 kmh E 3.0 mph4.8 kmh 30.16 in1021.3 mb 0.00 in0.0 mm 0.00 in0.0 mm 0.02 in0.5 mm
09:54 AM 62.1°F16.7°C 61.5°F16.4°C 98% 1.0 mph SE1.6 kmh SE 3.0 mph4.8 kmh 30.16 in1021.3 mb 0.00 in0.0 mm 0.00 in0.0 mm 0.02 in0.5 mm
09:57 AM 62.6°F17.0°C 62.1°F16.7°C 98% 1.0 mph SE1.6 kmh SE 3.0 mph4.8 kmh 30.16 in1021.3 mb 0.00 in0.0 mm 0.00 in0.0 mm 0.02 in0.5 mm
10:00 AM 63.1°F17.3°C 62.6°F17.0°C 98% 2.0 mph SE3.2 kmh SE 3.0 mph4.8 kmh 30.16 in1021.3 mb 0.00 in0.0 mm 0.00 in0.0 mm 0.02 in0.5 mm
10:03 AM 63.3°F17.4°C 62.8°F17.1°C 98% 2.0 mph SE3.2 kmh SE 3.0 mph4.8 kmh 30.16 in1021.3 mb 0.00 in0.0 mm 0.00 in0.0 mm 0.02 in0.5 mm
10:06 AM 63.5°F17.5°C 62.6°F17.0°C 97% 2.0 mph SE3.2 kmh SE 6.0 mph9.7 kmh 30.16 in1021.3 mb 0.00 in0.0 mm 0.00 in0.0 mm 0.02 in0.5 mm
10:09 AM 63.7°F17.6°C 62.8°F17.1°C 97% 3.0 mph SSE4.8 kmh SSE 7.0 mph11.3 kmh 30.16 in1021.3 mb 0.00 in0.0 mm 0.00 in0.0 mm 0.02 in0.5 mm
10:12 AM 63.5°F17.5°C 62.4°F16.9°C 96% 4.0 mph SE6.4 kmh SE 7.0 mph11.3 kmh 30.16 in1021.3 mb 0.00 in0.0 mm 0.00 in0.0 mm 0.02 in0.5 mm
10:15 AM 63.7°F17.6°C 62.4°F16.9°C 96% 4.0 mph SE6.4 kmh SE 7.0 mph11.3 kmh 30.16 in1021.3 mb 0.00 in0.0 mm 0.00 in0.0 mm 0.02 in0.5 mm
10:18 AM 63.7°F17.6°C 62.4°F16.9°C 96% 4.0 mph SE6.4 kmh SE 7.0 mph11.3 kmh 30.16 in1021.3 mb 0.00 in0.0 mm 0.00 in0.0 mm 0.02 in0.5 mm
10:21 AM 63.7°F17.6°C 62.4°F16.9°C 96% 4.0 mph SE6.4 kmh SE 7.0 mph11.3 kmh 30.16 in1021.3 mb 0.00 in0.0 mm 0.00 in0.0 mm 0.02 in0.5 mm
10:24 AM 63.7°F17.6°C 62.1°F16.7°C 95% 4.0 mph SE6.4 kmh SE 7.0 mph11.3 kmh 30.16 in1021.3 mb 0.00 in0.0 mm 0.00 in0.0 mm 0.02 in0.5 mm
10:27 AM 63.7°F17.6°C 62.2°F16.8°C 95% 4.0 mph SE6.4 kmh SE 6.0 mph9.7 kmh 30.16 in1021.3 mb 0.00 in0.0 mm 0.00 in0.0 mm 0.02 in0.5 mm
10:30 AM 64.0°F17.8°C 62.8°F17.1°C 96% 3.0 mph SE4.8 kmh SE 6.0 mph9.7 kmh 30.16 in1021.3 mb 0.00 in0.0 mm 0.00 in0.0 mm 0.02 in0.5 mm
10:33 AM 64.0°F17.8°C 62.6°F17.0°C 95% 3.0 mph SE4.8 kmh SE 6.0 mph9.7 kmh 30.16 in1021.3 mb 0.00 in0.0 mm 0.00 in0.0 mm 0.02 in0.5 mm
10:36 AM 63.7°F17.6°C 61.9°F16.6°C 94% 3.0 mph SSE4.8 kmh SSE 6.0 mph9.7 kmh 30.16 in1021.3 mb 0.00 in0.0 mm 0.00 in0.0 mm 0.02 in0.5 mm
10:39 AM 63.7°F17.6°C 61.9°F16.6°C 94% 3.0 mph SSE4.8 kmh SSE 6.0 mph9.7 kmh 30.16 in1021.3 mb 0.00 in0.0 mm 0.00 in0.0 mm 0.02 in0.5 mm
10:42 AM 63.7°F17.6°C 62.2°F16.8°C 95% 3.0 mph SSE4.8 kmh SSE 6.0 mph9.7 kmh 30.16 in1021.3 mb 0.00 in0.0 mm 0.00 in0.0 mm 0.02 in0.5 mm
10:45 AM 63.9°F17.7°C 62.4°F16.9°C 95% 3.0 mph SSE4.8 kmh SSE 5.0 mph8.0 kmh 30.16 in1021.3 mb 0.00 in0.0 mm 0.00 in0.0 mm 0.02 in0.5 mm
10:48 AM 64.0°F17.8°C 62.6°F17.0°C 95% 4.0 mph SSE6.4 kmh SSE 6.0 mph9.7 kmh 30.16 in1021.3 mb 0.00 in0.0 mm 0.00 in0.0 mm 0.02 in0.5 mm
10:51 AM 64.2°F17.9°C 62.8°F17.1°C 95% 3.0 mph SSE4.8 kmh SSE 6.0 mph9.7 kmh 30.16 in1021.3 mb 0.00 in0.0 mm 0.00 in0.0 mm 0.02 in0.5 mm
10:54 AM 64.6°F18.1°C 63.1°F17.3°C 95% 3.0 mph SSE4.8 kmh SSE 6.0 mph9.7 kmh 30.16 in1021.3 mb 0.00 in0.0 mm 0.00 in0.0 mm 0.02 in0.5 mm
10:57 AM 64.8°F18.2°C 63.3°F17.4°C 95% 2.0 mph SSE3.2 kmh SSE 6.0 mph9.7 kmh 30.16 in1021.3 mb 0.00 in0.0 mm 0.00 in0.0 mm 0.02 in0.5 mm
11:00 AM 64.9°F18.3°C 63.1°F17.3°C 94% 3.0 mph SSE4.8 kmh SSE 6.0 mph9.7 kmh 30.16 in1021.3 mb 0.00 in0.0 mm 0.00 in0.0 mm 0.02 in0.5 mm
11:03 AM 65.1°F18.4°C 63.3°F17.4°C 94% 3.0 mph SSE4.8 kmh SSE 6.0 mph9.7 kmh 30.16 in1021.3 mb 0.00 in0.0 mm 0.00 in0.0 mm 0.02 in0.5 mm
11:06 AM 65.1°F18.4°C 63.1°F17.3°C 93% 3.0 mph SSE4.8 kmh SSE 6.0 mph9.7 kmh 30.16 in1021.3 mb 0.00 in0.0 mm 0.00 in0.0 mm 0.02 in0.5 mm
11:09 AM 65.3°F18.5°C 63.1°F17.3°C 93% 4.0 mph SSE6.4 kmh SSE 6.0 mph9.7 kmh 30.15 in1021.0 mb 0.00 in0.0 mm 0.00 in0.0 mm 0.02 in0.5 mm
11:12 AM 65.7°F18.7°C 63.7°F17.6°C 93% 4.0 mph SSE6.4 kmh SSE 6.0 mph9.7 kmh 30.16 in1021.3 mb 0.00 in0.0 mm 0.00 in0.0 mm 0.02 in0.5 mm
11:15 AM 65.8°F18.8°C 63.5°F17.5°C 92% 4.0 mph SSE6.4 kmh SSE 7.0 mph11.3 kmh 30.15 in1021.0 mb 0.00 in0.0 mm 0.00 in0.0 mm 0.02 in0.5 mm
11:18 AM 65.8°F18.8°C 63.1°F17.3°C 91% 4.0 mph SSE6.4 kmh SSE 7.0 mph11.3 kmh 30.15 in1021.0 mb 0.00 in0.0 mm 0.00 in0.0 mm 0.02 in0.5 mm
11:21 AM 66.0°F18.9°C 63.3°F17.4°C 91% 4.0 mph SSE6.4 kmh SSE 7.0 mph11.3 kmh 30.15 in1021.0 mb 0.00 in0.0 mm 0.00 in0.0 mm 0.02 in0.5 mm
11:24 AM 66.0°F18.9°C 63.3°F17.4°C 91% 4.0 mph SSE6.4 kmh SSE 7.0 mph11.3 kmh 30.15 in1021.0 mb 0.00 in0.0 mm 0.00 in0.0 mm 0.02 in0.5 mm
11:27 AM 66.6°F19.2°C 64.0°F17.8°C 92% 4.0 mph SSE6.4 kmh SSE 7.0 mph11.3 kmh 30.16 in1021.3 mb 0.00 in0.0 mm 0.00 in0.0 mm 0.02 in0.5 mm
11:30 AM 66.6°F19.2°C 63.5°F17.5°C 90% 5.0 mph SSE8.0 kmh SSE 8.0 mph12.9 kmh 30.16 in1021.3 mb 0.00 in0.0 mm 0.00 in0.0 mm 0.02 in0.5 mm
11:33 AM 66.6°F19.2°C 63.3°F17.4°C 89% 5.0 mph SSE8.0 kmh SSE 8.0 mph12.9 kmh 30.16 in1021.3 mb 0.00 in0.0 mm 0.00 in0.0 mm 0.02 in0.5 mm
11:36 AM 66.7°F19.3°C 63.3°F17.4°C 89% 5.0 mph SSE8.0 kmh SSE 8.0 mph12.9 kmh 30.16 in1021.3 mb 0.00 in0.0 mm 0.00 in0.0 mm 0.02 in0.5 mm
11:39 AM 66.7°F19.3°C 63.0°F17.2°C 88% 5.0 mph SSE8.0 kmh SSE 8.0 mph12.9 kmh 30.16 in1021.3 mb 0.00 in0.0 mm 0.00 in0.0 mm 0.02 in0.5 mm
11:42 AM 66.6°F19.2°C 62.6°F17.0°C 87% 5.0 mph SSE8.0 kmh SSE 8.0 mph12.9 kmh 30.16 in1021.3 mb 0.00 in0.0 mm 0.00 in0.0 mm 0.02 in0.5 mm
11:45 AM 66.4°F19.1°C 62.4°F16.9°C 87% 5.0 mph SSE8.0 kmh SSE 8.0 mph12.9 kmh 30.16 in1021.3 mb 0.00 in0.0 mm 0.00 in0.0 mm 0.02 in0.5 mm
11:48 AM 66.4°F19.1°C 62.2°F16.8°C 87% 5.0 mph SSE8.0 kmh SSE 8.0 mph12.9 kmh 30.16 in1021.3 mb 0.00 in0.0 mm 0.00 in0.0 mm 0.02 in0.5 mm
11:51 AM 66.2°F19.0°C 62.2°F16.8°C 87% 5.0 mph SSE8.0 kmh SSE 10.0 mph16.1 kmh 30.16 in1021.3 mb 0.00 in0.0 mm 0.00 in0.0 mm 0.02 in0.5 mm
11:54 AM 66.2°F19.0°C 62.2°F16.8°C 87% 6.0 mph SSE9.7 kmh SSE 10.0 mph16.1 kmh 30.16 in1021.3 mb 0.00 in0.0 mm 0.00 in0.0 mm 0.02 in0.5 mm
11:57 AM 66.2°F19.0°C 62.2°F16.8°C 87% 6.0 mph SSE9.7 kmh SSE 10.0 mph16.1 kmh 30.16 in1021.3 mb 0.00 in0.0 mm 0.00 in0.0 mm 0.02 in0.5 mm
12:00 PM 66.4°F19.1°C 62.2°F16.8°C 87% 6.0 mph SSE9.7 kmh SSE 10.0 mph16.1 kmh 30.16 in1021.3 mb 0.00 in0.0 mm 0.00 in0.0 mm 0.02 in0.5 mm
12:03 PM 66.4°F19.1°C 62.4°F16.9°C 87% 5.0 mph SSE8.0 kmh SSE 10.0 mph16.1 kmh 30.16 in1021.3 mb 0.00 in0.0 mm 0.00 in0.0 mm 0.02 in0.5 mm
12:06 PM 66.6°F19.2°C 62.4°F16.9°C 87% 6.0 mph SSE9.7 kmh SSE 10.0 mph16.1 kmh 30.16 in1021.3 mb 0.00 in0.0 mm 0.00 in0.0 mm 0.02 in0.5 mm
12:09 PM 66.6°F19.2°C 62.6°F17.0°C 87% 6.0 mph SSE9.7 kmh SSE 9.0 mph14.5 kmh 30.16 in1021.3 mb 0.00 in0.0 mm 0.00 in0.0 mm 0.02 in0.5 mm
12:12 PM 66.9°F19.4°C 63.0°F17.2°C 87% 7.0 mph SSE11.3 kmh SSE 9.0 mph14.5 kmh 30.16 in1021.3 mb 0.00 in0.0 mm 0.00 in0.0 mm 0.02 in0.5 mm
12:15 PM 67.3°F19.6°C 63.1°F17.3°C 87% 7.0 mph SSE11.3 kmh SSE 9.0 mph14.5 kmh 30.16 in1021.3 mb 0.00 in0.0 mm 0.00 in0.0 mm 0.02 in0.5 mm
12:18 PM 67.3°F19.6°C 62.8°F17.1°C 86% 7.0 mph SSE11.3 kmh SSE 10.0 mph16.1 kmh 30.16 in1021.3 mb 0.00 in0.0 mm 0.00 in0.0 mm 0.02 in0.5 mm
12:21 PM 67.3°F19.6°C 63.0°F17.2°C 86% 8.0 mph SSE12.9 kmh SSE 10.0 mph16.1 kmh 30.16 in1021.3 mb 0.00 in0.0 mm 0.00 in0.0 mm 0.02 in0.5 mm
12:24 PM 67.1°F19.5°C 62.1°F16.7°C 84% 8.0 mph SSE12.9 kmh SSE 10.0 mph16.1 kmh 30.16 in1021.3 mb 0.00 in0.0 mm 0.00 in0.0 mm 0.02 in0.5 mm
12:27 PM 67.1°F19.5°C 62.4°F16.9°C 85% 9.0 mph SSE14.5 kmh SSE 10.0 mph16.1 kmh 30.16 in1021.3 mb 0.00 in0.0 mm 0.00 in0.0 mm 0.02 in0.5 mm
12:30 PM 66.9°F19.4°C 62.2°F16.8°C 85% 9.0 mph SSE14.5 kmh SSE 11.0 mph17.7 kmh 30.16 in1021.3 mb 0.00 in0.0 mm 0.00 in0.0 mm 0.02 in0.5 mm
12:33 PM 66.7°F19.3°C 62.1°F16.7°C 85% 9.0 mph SSE14.5 kmh SSE 11.0 mph17.7 kmh 30.16 in1021.3 mb 0.00 in0.0 mm 0.00 in0.0 mm 0.02 in0.5 mm
12:36 PM 66.7°F19.3°C 62.1°F16.7°C 85% 9.0 mph SSE14.5 kmh SSE 11.0 mph17.7 kmh 30.16 in1021.3 mb 0.00 in0.0 mm 0.00 in0.0 mm 0.02 in0.5 mm
12:39 PM 66.7°F19.3°C 62.1°F16.7°C 85% 9.0 mph SSE14.5 kmh SSE 11.0 mph17.7 kmh 30.16 in1021.3 mb 0.00 in0.0 mm 0.00 in0.0 mm 0.02 in0.5 mm
12:42 PM 66.9°F19.4°C 62.2°F16.8°C 85% 8.0 mph SSE12.9 kmh SSE 11.0 mph17.7 kmh 30.16 in1021.3 mb 0.00 in0.0 mm 0.00 in0.0 mm 0.02 in0.5 mm
12:45 PM 66.9°F19.4°C 62.2°F16.8°C 85% 8.0 mph SSE12.9 kmh SSE 11.0 mph17.7 kmh 30.16 in1021.3 mb 0.00 in0.0 mm 0.00 in0.0 mm 0.02 in0.5 mm
12:48 PM 66.7°F19.3°C 62.1°F16.7°C 85% 8.0 mph SSE12.9 kmh SSE 12.0 mph19.3 kmh 30.16 in1021.3 mb 0.00 in0.0 mm 0.00 in0.0 mm 0.02 in0.5 mm
12:51 PM 66.6°F19.2°C 61.9°F16.6°C 85% 8.0 mph SSE12.9 kmh SSE 12.0 mph19.3 kmh 30.16 in1021.3 mb 0.00 in0.0 mm 0.00 in0.0 mm 0.02 in0.5 mm
12:54 PM 66.6°F19.2°C 61.9°F16.6°C 85% 8.0 mph SSE12.9 kmh SSE 12.0 mph19.3 kmh 30.16 in1021.3 mb 0.00 in0.0 mm 0.00 in0.0 mm 0.02 in0.5 mm
12:57 PM 66.4°F19.1°C 61.7°F16.5°C 85% 8.0 mph SSE12.9 kmh SSE 12.0 mph19.3 kmh 30.16 in1021.3 mb 0.00 in0.0 mm 0.00 in0.0 mm 0.02 in0.5 mm
01:00 PM 66.2°F19.0°C 61.5°F16.4°C 85% 8.0 mph SSE12.9 kmh SSE 12.0 mph19.3 kmh 30.16 in1021.3 mb 0.00 in0.0 mm 0.00 in0.0 mm 0.02 in0.5 mm
01:03 PM 66.0°F18.9°C 61.3°F16.3°C 85% 8.0 mph SSE12.9 kmh SSE 12.0 mph19.3 kmh 30.16 in1021.3 mb 0.00 in0.0 mm 0.00 in0.0 mm 0.02 in0.5 mm
01:06 PM 66.0°F18.9°C 61.7°F16.5°C 86% 8.0 mph SSE12.9 kmh SSE 12.0 mph19.3 kmh 30.16 in1021.3 mb 0.00 in0.0 mm 0.00 in0.0 mm 0.02 in0.5 mm
01:09 PM 66.0°F18.9°C 61.7°F16.5°C 86% 8.0 mph SSE12.9 kmh SSE 11.0 mph17.7 kmh 30.16 in1021.3 mb 0.00 in0.0 mm 0.00 in0.0 mm 0.02 in0.5 mm
01:12 PM 66.2°F19.0°C 61.9°F16.6°C 86% 7.0 mph SSE11.3 kmh SSE 11.0 mph17.7 kmh 30.16 in1021.3 mb 0.00 in0.0 mm 0.00 in0.0 mm 0.02 in0.5 mm
01:15 PM 66.4°F19.1°C 62.2°F16.8°C 87% 7.0 mph SSE11.3 kmh SSE 10.0 mph16.1 kmh 30.16 in1021.3 mb 0.00 in0.0 mm 0.00 in0.0 mm 0.02 in0.5 mm
01:18 PM 66.4°F19.1°C 62.1°F16.7°C 86% 7.0 mph SSE11.3 kmh SSE 11.0 mph17.7 kmh 30.16 in1021.3 mb 0.00 in0.0 mm 0.00 in0.0 mm 0.02 in0.5 mm
01:21 PM 66.4°F19.1°C 62.1°F16.7°C 86% 8.0 mph SSE12.9 kmh SSE 12.0 mph19.3 kmh 30.16 in1021.3 mb 0.00 in0.0 mm 0.00 in0.0 mm 0.02 in0.5 mm
01:24 PM 66.2°F19.0°C 61.5°F16.4°C 85% 9.0 mph SSE14.5 kmh SSE 12.0 mph19.3 kmh 30.16 in1021.3 mb 0.00 in0.0 mm 0.00 in0.0 mm 0.02 in0.5 mm
01:27 PM 66.2°F19.0°C 61.5°F16.4°C 85% 9.0 mph SSE14.5 kmh SSE 12.0 mph19.3 kmh 30.16 in1021.3 mb 0.00 in0.0 mm 0.00 in0.0 mm 0.02 in0.5 mm
01:30 PM 66.2°F19.0°C 61.5°F16.4°C 85% 9.0 mph SSE14.5 kmh SSE 12.0 mph19.3 kmh 30.16 in1021.3 mb 0.00 in0.0 mm 0.00 in0.0 mm 0.02 in0.5 mm
01:33 PM 66.2°F19.0°C 61.5°F16.4°C 85% 9.0 mph SSE14.5 kmh SSE 12.0 mph19.3 kmh 30.16 in1021.3 mb 0.00 in0.0 mm 0.00 in0.0 mm 0.02 in0.5 mm
01:36 PM 66.4°F19.1°C 61.7°F16.5°C 85% 9.0 mph SSE14.5 kmh SSE 12.0 mph19.3 kmh 30.16 in1021.3 mb 0.00 in0.0 mm 0.00 in0.0 mm 0.02 in0.5 mm
01:39 PM 66.4°F19.1°C 61.7°F16.5°C 85% 8.0 mph SSE12.9 kmh SSE 12.0 mph19.3 kmh 30.16 in1021.3 mb 0.00 in0.0 mm 0.00 in0.0 mm 0.02 in0.5 mm
01:42 PM 66.4°F19.1°C 61.7°F16.5°C 85% 8.0 mph SSE12.9 kmh SSE 11.0 mph17.7 kmh 30.16 in1021.3 mb 0.00 in0.0 mm 0.00 in0.0 mm 0.02 in0.5 mm
01:45 PM 66.6°F19.2°C 61.9°F16.6°C 85% 7.0 mph SSE11.3 kmh SSE 10.0 mph16.1 kmh 30.16 in1021.3 mb 0.00 in0.0 mm 0.00 in0.0 mm 0.02 in0.5 mm
01:48 PM 66.6°F19.2°C 61.9°F16.6°C 85% 7.0 mph SSE11.3 kmh SSE 10.0 mph16.1 kmh 30.16 in1021.3 mb 0.00 in0.0 mm 0.00 in0.0 mm 0.02 in0.5 mm
01:51 PM 66.7°F19.3°C 62.4°F16.9°C 86% 8.0 mph SSE12.9 kmh SSE 10.0 mph16.1 kmh 30.16 in1021.3 mb 0.00 in0.0 mm 0.00 in0.0 mm 0.02 in0.5 mm
01:54 PM 66.7°F19.3°C 62.4°F16.9°C 86% 8.0 mph SSE12.9 kmh SSE 10.0 mph16.1 kmh 30.16 in1021.3 mb 0.00 in0.0 mm 0.00 in0.0 mm 0.02 in0.5 mm
01:57 PM 66.9°F19.4°C 62.2°F16.8°C 85% 8.0 mph SSE12.9 kmh SSE 12.0 mph19.3 kmh 30.16 in1021.3 mb 0.00 in0.0 mm 0.00 in0.0 mm 0.02 in0.5 mm
02:00 PM 66.9°F19.4°C 62.2°F16.8°C 85% 9.0 mph SSE14.5 kmh SSE 12.0 mph19.3 kmh 30.16 in1021.3 mb 0.00 in0.0 mm 0.00 in0.0 mm 0.02 in0.5 mm
02:03 PM 66.9°F19.4°C 62.4°F16.9°C 85% 9.0 mph SSE14.5 kmh SSE 12.0 mph19.3 kmh 30.16 in1021.3 mb 0.00 in0.0 mm 0.00 in0.0 mm 0.02 in0.5 mm
02:06 PM 66.9°F19.4°C 62.4°F16.9°C 85% 8.0 mph SSE12.9 kmh SSE 12.0 mph19.3 kmh 30.16 in1021.3 mb 0.00 in0.0 mm 0.00 in0.0 mm 0.02 in0.5 mm
02:09 PM 66.9°F19.4°C 62.4°F16.9°C 85% 8.0 mph SSE12.9 kmh SSE 12.0 mph19.3 kmh 30.16 in1021.3 mb 0.00 in0.0 mm 0.00 in0.0 mm 0.02 in0.5 mm
02:12 PM 66.9°F19.4°C 61.9°F16.6°C 84% 8.0 mph SSE12.9 kmh SSE 12.0 mph19.3 kmh 30.16 in1021.3 mb 0.00 in0.0 mm 0.00 in0.0 mm 0.02 in0.5 mm
02:15 PM 66.7°F19.3°C 61.9°F16.6°C 84% 9.0 mph SSE14.5 kmh SSE 12.0 mph19.3 kmh 30.16 in1021.3 mb 0.00 in0.0 mm 0.00 in0.0 mm 0.02 in0.5 mm
02:18 PM 66.7°F19.3°C 62.1°F16.7°C 85% 8.0 mph SSE12.9 kmh SSE 12.0 mph19.3 kmh 30.16 in1021.3 mb 0.00 in0.0 mm 0.00 in0.0 mm 0.02 in0.5 mm
02:21 PM 66.6°F19.2°C 61.9°F16.6°C 85% 7.0 mph SSE11.3 kmh SSE 11.0 mph17.7 kmh 30.16 in1021.3 mb 0.00 in0.0 mm 0.00 in0.0 mm 0.02 in0.5 mm
02:24 PM 66.7°F19.3°C 62.4°F16.9°C 86% 7.0 mph SSE11.3 kmh SSE 11.0 mph17.7 kmh 30.16 in1021.3 mb 0.00 in0.0 mm 0.00 in0.0 mm 0.02 in0.5 mm
02:27 PM 66.7°F19.3°C 62.4°F16.9°C 86% 7.0 mph SSE11.3 kmh SSE 11.0 mph17.7 kmh 30.16 in1021.3 mb 0.00 in0.0 mm 0.00 in0.0 mm 0.02 in0.5 mm
02:30 PM 66.7°F19.3°C 62.1°F16.7°C 85% 7.0 mph SSE11.3 kmh SSE 13.0 mph20.9 kmh 30.16 in1021.3 mb 0.00 in0.0 mm 0.00 in0.0 mm 0.02 in0.5 mm
02:33 PM 66.6°F19.2°C 61.9°F16.6°C 85% 8.0 mph SSE12.9 kmh SSE 13.0 mph20.9 kmh 30.16 in1021.3 mb 0.00 in0.0 mm 0.00 in0.0 mm 0.02 in0.5 mm
02:36 PM 66.4°F19.1°C 61.7°F16.5°C 85% 8.0 mph SSE12.9 kmh SSE 13.0 mph20.9 kmh 30.16 in1021.3 mb 0.00 in0.0 mm 0.00 in0.0 mm 0.02 in0.5 mm
02:39 PM 66.2°F19.0°C 61.5°F16.4°C 85% 8.0 mph SSE12.9 kmh SSE 12.0 mph19.3 kmh 30.16 in1021.3 mb 0.00 in0.0 mm 0.00 in0.0 mm 0.02 in0.5 mm
02:42 PM 66.2°F19.0°C 61.5°F16.4°C 85% 8.0 mph SSE12.9 kmh SSE 12.0 mph19.3 kmh 30.16 in1021.3 mb 0.00 in0.0 mm 0.00 in0.0 mm 0.02 in0.5 mm
02:45 PM 66.4°F19.1°C 62.1°F16.7°C 86% 8.0 mph SSE12.9 kmh SSE 12.0 mph19.3 kmh 30.16 in1021.3 mb 0.00 in0.0 mm 0.00 in0.0 mm 0.02 in0.5 mm
02:48 PM 66.4°F19.1°C 62.1°F16.7°C 86% 9.0 mph SSE14.5 kmh SSE 12.0 mph19.3 kmh 30.16 in1021.3 mb 0.00 in0.0 mm 0.00 in0.0 mm 0.02 in0.5 mm
02:51 PM 66.6°F19.2°C 62.2°F16.8°C 86% 9.0 mph SE14.5 kmh SE 12.0 mph19.3 kmh 30.16 in1021.3 mb 0.00 in0.0 mm 0.00 in0.0 mm 0.02 in0.5 mm
02:54 PM 66.7°F19.3°C 62.4°F16.9°C 86% 10.0 mph SE16.1 kmh SE 12.0 mph19.3 kmh 30.16 in1021.3 mb 0.00 in0.0 mm 0.00 in0.0 mm 0.02 in0.5 mm
02:57 PM 66.7°F19.3°C 62.1°F16.7°C 85% 10.0 mph SE16.1 kmh SE 13.0 mph20.9 kmh 30.16 in1021.3 mb 0.00 in0.0 mm 0.00 in0.0 mm 0.02 in0.5 mm
03:00 PM 66.7°F19.3°C 62.1°F16.7°C 85% 9.0 mph SE14.5 kmh SE 13.0 mph20.9 kmh 30.16 in1021.3 mb 0.00 in0.0 mm 0.00 in0.0 mm 0.02 in0.5 mm
03:03 PM 66.7°F19.3°C 62.1°F16.7°C 85% 9.0 mph SE14.5 kmh SE 13.0 mph20.9 kmh 30.16 in1021.3 mb 0.00 in0.0 mm 0.00 in0.0 mm 0.02 in0.5 mm
03:06 PM 66.6°F19.2°C 61.7°F16.5°C 84% 9.0 mph SE14.5 kmh SE 14.0 mph22.5 kmh 30.16 in1021.3 mb 0.00 in0.0 mm 0.00 in0.0 mm 0.02 in0.5 mm
03:09 PM 66.6°F19.2°C 61.5°F16.4°C 84% 10.0 mph SE16.1 kmh SE 15.0 mph24.1 kmh 30.16 in1021.3 mb 0.00 in0.0 mm 0.00 in0.0 mm 0.02 in0.5 mm
03:12 PM 66.4°F19.1°C 61.3°F16.3°C 84% 10.0 mph SE16.1 kmh SE 15.0 mph24.1 kmh 30.16 in1021.3 mb 0.00 in0.0 mm 0.00 in0.0 mm 0.02 in0.5 mm
03:15 PM 66.2°F19.0°C 61.2°F16.2°C 84% 10.0 mph SE16.1 kmh SE 15.0 mph24.1 kmh 30.16 in1021.3 mb 0.00 in0.0 mm 0.00 in0.0 mm 0.02 in0.5 mm
03:18 PM 66.0°F18.9°C 61.0°F16.1°C 84% 10.0 mph SE16.1 kmh SE 16.0 mph25.7 kmh 30.15 in1021.0 mb 0.00 in0.0 mm 0.00 in0.0 mm 0.02 in0.5 mm
03:21 PM 65.8°F18.8°C 61.0°F16.1°C 84% 10.0 mph SE16.1 kmh SE 16.0 mph25.7 kmh 30.15 in1021.0 mb 0.00 in0.0 mm 0.00 in0.0 mm 0.02 in0.5 mm
03:24 PM 65.8°F18.8°C 60.8°F16.0°C 84% 10.0 mph SE16.1 kmh SE 16.0 mph25.7 kmh 30.15 in1021.0 mb 0.00 in0.0 mm 0.00 in0.0 mm 0.02 in0.5 mm
03:27 PM 65.7°F18.7°C 60.6°F15.9°C 84% 10.0 mph SE16.1 kmh SE 14.0 mph22.5 kmh 30.15 in1021.0 mb 0.00 in0.0 mm 0.00 in0.0 mm 0.02 in0.5 mm
03:30 PM 65.7°F18.7°C 61.0°F16.1°C 85% 10.0 mph SE16.1 kmh SE 14.0 mph22.5 kmh 30.15 in1021.0 mb 0.00 in0.0 mm 0.00 in0.0 mm 0.02 in0.5 mm
03:33 PM 65.5°F18.6°C 60.8°F16.0°C 85% 9.0 mph SE14.5 kmh SE 14.0 mph22.5 kmh 30.15 in1021.0 mb 0.00 in0.0 mm 0.00 in0.0 mm 0.02 in0.5 mm
03:36 PM 65.7°F18.7°C 61.3°F16.3°C 86% 9.0 mph SE14.5 kmh SE 14.0 mph22.5 kmh 30.15 in1021.0 mb 0.00 in0.0 mm 0.00 in0.0 mm 0.02 in0.5 mm
03:39 PM 65.7°F18.7°C 61.0°F16.1°C 85% 9.0 mph SE14.5 kmh SE 13.0 mph20.9 kmh 30.15 in1021.0 mb 0.00 in0.0 mm 0.00 in0.0 mm 0.02 in0.5 mm
03:42 PM 65.7°F18.7°C 61.0°F16.1°C 85% 9.0 mph SE14.5 kmh SE 13.0 mph20.9 kmh 30.15 in1021.0 mb 0.00 in0.0 mm 0.00 in0.0 mm 0.02 in0.5 mm
03:45 PM 65.7°F18.7°C 61.0°F16.1°C 85% 9.0 mph SE14.5 kmh SE 14.0 mph22.5 kmh 30.15 in1021.0 mb 0.00 in0.0 mm 0.00 in0.0 mm 0.02 in0.5 mm
03:48 PM 65.7°F18.7°C 61.0°F16.1°C 85% 9.0 mph SE14.5 kmh SE 14.0 mph22.5 kmh 30.15 in1021.0 mb 0.00 in0.0 mm 0.00 in0.0 mm 0.02 in0.5 mm
03:51 PM 65.7°F18.7°C 60.6°F15.9°C 84% 10.0 mph SE16.1 kmh SE 14.0 mph22.5 kmh 30.15 in1021.0 mb 0.00 in0.0 mm 0.00 in0.0 mm 0.02 in0.5 mm
03:54 PM 65.5°F18.6°C 60.6°F15.9°C 84% 10.0 mph SE16.1 kmh SE 14.0 mph22.5 kmh 30.15 in1021.0 mb 0.00 in0.0 mm 0.00 in0.0 mm 0.02 in0.5 mm
03:57 PM 65.7°F18.7°C 61.0°F16.1°C 85% 10.0 mph SE16.1 kmh SE 14.0 mph22.5 kmh 30.15 in1021.0 mb 0.00 in0.0 mm 0.00 in0.0 mm 0.02 in0.5 mm
04:00 PM 65.7°F18.7°C 61.0°F16.1°C 85% 10.0 mph SE16.1 kmh SE 13.0 mph20.9 kmh 30.15 in1021.0 mb 0.00 in0.0 mm 0.00 in0.0 mm 0.02 in0.5 mm
04:03 PM 65.7°F18.7°C 61.0°F16.1°C 85% 10.0 mph SE16.1 kmh SE 14.0 mph22.5 kmh 30.15 in1021.0 mb 0.00 in0.0 mm 0.00 in0.0 mm 0.02 in0.5 mm
04:06 PM 65.8°F18.8°C 61.2°F16.2°C 85% 10.0 mph SE16.1 kmh SE 14.0 mph22.5 kmh 30.14 in1020.7 mb 0.00 in0.0 mm 0.00 in0.0 mm 0.02 in0.5 mm
04:09 PM 66.0°F18.9°C 61.3°F16.3°C 85% 10.0 mph SE16.1 kmh SE 14.0 mph22.5 kmh 30.14 in1020.7 mb 0.00 in0.0 mm 0.00 in0.0 mm 0.02 in0.5 mm
04:12 PM 66.0°F18.9°C 61.5°F16.4°C 85% 9.0 mph SE14.5 kmh SE 14.0 mph22.5 kmh 30.14 in1020.7 mb 0.00 in0.0 mm 0.00 in0.0 mm 0.02 in0.5 mm
04:15 PM 66.0°F18.9°C 61.0°F16.1°C 84% 9.0 mph SE14.5 kmh SE 14.0 mph22.5 kmh 30.14 in1020.7 mb 0.00 in0.0 mm 0.00 in0.0 mm 0.02 in0.5 mm
04:18 PM 65.8°F18.8°C 61.0°F16.1°C 84% 9.0 mph SE14.5 kmh SE 14.0 mph22.5 kmh 30.14 in1020.7 mb 0.00 in0.0 mm 0.00 in0.0 mm 0.02 in0.5 mm
04:21 PM 65.8°F18.8°C 61.0°F16.1°C 84% 9.0 mph SE14.5 kmh SE 14.0 mph22.5 kmh 30.14 in1020.7 mb 0.00 in0.0 mm 0.00 in0.0 mm 0.02 in0.5 mm
04:24 PM 65.8°F18.8°C 61.0°F16.1°C 84% 9.0 mph SE14.5 kmh SE 13.0 mph20.9 kmh 30.14 in1020.7 mb 0.00 in0.0 mm 0.00 in0.0 mm 0.02 in0.5 mm
04:27 PM 65.8°F18.8°C 61.0°F16.1°C 84% 9.0 mph SE14.5 kmh SE 14.0 mph22.5 kmh 30.14 in1020.7 mb 0.00 in0.0 mm 0.00 in0.0 mm 0.02 in0.5 mm
04:30 PM 65.8°F18.8°C 61.0°F16.1°C 84% 9.0 mph SE14.5 kmh SE 16.0 mph25.7 kmh 30.14 in1020.7 mb 0.00 in0.0 mm 0.00 in0.0 mm 0.02 in0.5 mm
04:33 PM 65.8°F18.8°C 60.8°F16.0°C 84% 9.0 mph SE14.5 kmh SE 16.0 mph25.7 kmh 30.14 in1020.7 mb 0.00 in0.0 mm 0.00 in0.0 mm 0.02 in0.5 mm
04:36 PM 65.7°F18.7°C 60.8°F16.0°C 84% 10.0 mph SE16.1 kmh SE 16.0 mph25.7 kmh 30.14 in1020.7 mb 0.00 in0.0 mm 0.00 in0.0 mm 0.02 in0.5 mm
04:39 PM 65.7°F18.7°C 60.8°F16.0°C 84% 9.0 mph SE14.5 kmh SE 15.0 mph24.1 kmh 30.14 in1020.7 mb 0.00 in0.0 mm 0.00 in0.0 mm 0.02 in0.5 mm
04:42 PM 65.7°F18.7°C 60.6°F15.9°C 84% 9.0 mph SE14.5 kmh SE 13.0 mph20.9 kmh 30.14 in1020.7 mb 0.00 in0.0 mm 0.00 in0.0 mm 0.02 in0.5 mm
04:45 PM 65.5°F18.6°C 60.4°F15.8°C 84% 8.0 mph SSE12.9 kmh SSE 13.0 mph20.9 kmh 30.14 in1020.7 mb 0.00 in0.0 mm 0.00 in0.0 mm 0.02 in0.5 mm
04:48 PM 65.1°F18.4°C 60.3°F15.7°C 84% 8.0 mph SSE12.9 kmh SSE 13.0 mph20.9 kmh 30.14 in1020.7 mb 0.00 in0.0 mm 0.00 in0.0 mm 0.02 in0.5 mm
04:51 PM 65.1°F18.4°C 60.4°F15.8°C 85% 8.0 mph SSE12.9 kmh SSE 13.0 mph20.9 kmh 30.14 in1020.7 mb 0.00 in0.0 mm 0.00 in0.0 mm 0.02 in0.5 mm
04:54 PM 64.9°F18.3°C 60.4°F15.8°C 85% 8.0 mph SSE12.9 kmh SSE 12.0 mph19.3 kmh 30.14 in1020.7 mb 0.00 in0.0 mm 0.00 in0.0 mm 0.02 in0.5 mm
04:57 PM 64.8°F18.2°C 59.9°F15.5°C 84% 8.0 mph SSE12.9 kmh SSE 16.0 mph25.7 kmh 30.14 in1020.7 mb 0.00 in0.0 mm 0.00 in0.0 mm 0.02 in0.5 mm
05:00 PM 64.6°F18.1°C 59.9°F15.5°C 85% 9.0 mph SSE14.5 kmh SSE 16.0 mph25.7 kmh 30.14 in1020.7 mb 0.00 in0.0 mm 0.00 in0.0 mm 0.02 in0.5 mm
05:03 PM 64.4°F18.0°C 59.7°F15.4°C 85% 9.0 mph SSE14.5 kmh SSE 16.0 mph25.7 kmh 30.14 in1020.7 mb 0.00 in0.0 mm 0.00 in0.0 mm 0.02 in0.5 mm
05:06 PM 64.2°F17.9°C 59.7°F15.4°C 85% 8.0 mph SSE12.9 kmh SSE 16.0 mph25.7 kmh 30.15 in1021.0 mb 0.00 in0.0 mm 0.00 in0.0 mm 0.02 in0.5 mm
05:09 PM 64.0°F17.8°C 59.5°F15.3°C 85% 8.0 mph SSE12.9 kmh SSE 13.0 mph20.9 kmh 30.14 in1020.7 mb 0.00 in0.0 mm 0.00 in0.0 mm 0.02 in0.5 mm
05:12 PM 63.9°F17.7°C 59.4°F15.2°C 85% 8.0 mph SSE12.9 kmh SSE 15.0 mph24.1 kmh 30.14 in1020.7 mb 0.00 in0.0 mm 0.00 in0.0 mm 0.02 in0.5 mm
05:15 PM 63.9°F17.7°C 59.5°F15.3°C 86% 8.0 mph SSE12.9 kmh SSE 15.0 mph24.1 kmh 30.14 in1020.7 mb 0.00 in0.0 mm 0.00 in0.0 mm 0.02 in0.5 mm
05:18 PM 63.7°F17.6°C 59.4°F15.2°C 86% 8.0 mph SSE12.9 kmh SSE 15.0 mph24.1 kmh 30.14 in1020.7 mb 0.00 in0.0 mm 0.00 in0.0 mm 0.02 in0.5 mm
05:21 PM 63.5°F17.5°C 59.2°F15.1°C 86% 9.0 mph SSE14.5 kmh SSE 15.0 mph24.1 kmh 30.14 in1020.7 mb 0.00 in0.0 mm 0.00 in0.0 mm 0.02 in0.5 mm
05:24 PM 63.3°F17.4°C 59.2°F15.1°C 86% 9.0 mph SSE14.5 kmh SSE 15.0 mph24.1 kmh 30.14 in1020.7 mb 0.00 in0.0 mm 0.00 in0.0 mm 0.02 in0.5 mm
05:27 PM 63.3°F17.4°C 59.2°F15.1°C 86% 10.0 mph SSE16.1 kmh SSE 15.0 mph24.1 kmh 30.14 in1020.7 mb 0.00 in0.0 mm 0.00 in0.0 mm 0.02 in0.5 mm
05:30 PM 63.3°F17.4°C 59.0°F15.0°C 86% 9.0 mph SSE14.5 kmh SSE 15.0 mph24.1 kmh 30.14 in1020.7 mb 0.00 in0.0 mm 0.00 in0.0 mm 0.02 in0.5 mm
05:33 PM 63.3°F17.4°C 59.0°F15.0°C 86% 9.0 mph SSE14.5 kmh SSE 15.0 mph24.1 kmh 30.14 in1020.7 mb 0.00 in0.0 mm 0.00 in0.0 mm 0.02 in0.5 mm
05:36 PM 63.3°F17.4°C 59.4°F15.2°C 87% 8.0 mph SSE12.9 kmh SSE 12.0 mph19.3 kmh 30.14 in1020.7 mb 0.00 in0.0 mm 0.00 in0.0 mm 0.02 in0.5 mm
05:39 PM 63.3°F17.4°C 59.0°F15.0°C 86% 8.0 mph SSE12.9 kmh SSE 12.0 mph19.3 kmh 30.14 in1020.7 mb 0.00 in0.0 mm 0.00 in0.0 mm 0.02 in0.5 mm
05:42 PM 63.1°F17.3°C 59.0°F15.0°C 86% 8.0 mph SSE12.9 kmh SSE 15.0 mph24.1 kmh 30.14 in1020.7 mb 0.00 in0.0 mm 0.00 in0.0 mm 0.02 in0.5 mm
05:45 PM 63.0°F17.2°C 58.8°F14.9°C 86% 8.0 mph SSE12.9 kmh SSE 15.0 mph24.1 kmh 30.14 in1020.7 mb 0.00 in0.0 mm 0.00 in0.0 mm 0.02 in0.5 mm
05:48 PM 62.8°F17.1°C 58.5°F14.7°C 86% 9.0 mph SSE14.5 kmh SSE 15.0 mph24.1 kmh 30.14 in1020.7 mb 0.00 in0.0 mm 0.00 in0.0 mm 0.02 in0.5 mm
05:51 PM 62.4°F16.9°C 58.6°F14.8°C 87% 9.0 mph SSE14.5 kmh SSE 15.0 mph24.1 kmh 30.14 in1020.7 mb 0.00 in0.0 mm 0.00 in0.0 mm 0.02 in0.5 mm
05:54 PM 62.4°F16.9°C 58.5°F14.7°C 87% 9.0 mph SSE14.5 kmh SSE 15.0 mph24.1 kmh 30.14 in1020.7 mb 0.00 in0.0 mm 0.00 in0.0 mm 0.02 in0.5 mm
05:57 PM 62.2°F16.8°C 58.3°F14.6°C 87% 9.0 mph SSE14.5 kmh SSE 15.0 mph24.1 kmh 30.14 in1020.7 mb 0.00 in0.0 mm 0.00 in0.0 mm 0.02 in0.5 mm
06:00 PM 61.9°F16.6°C 57.9°F14.4°C 87% 9.0 mph SSE14.5 kmh SSE 16.0 mph25.7 kmh 30.14 in1020.7 mb 0.00 in0.0 mm 0.00 in0.0 mm 0.02 in0.5 mm
06:03 PM 61.5°F16.4°C 57.9°F14.4°C 88% 9.0 mph SSE14.5 kmh SSE 16.0 mph25.7 kmh 30.14 in1020.7 mb 0.00 in0.0 mm 0.00 in0.0 mm 0.02 in0.5 mm
06:06 PM 61.2°F16.2°C 57.6°F14.2°C 88% 10.0 mph SSE16.1 kmh SSE 16.0 mph25.7 kmh 30.14 in1020.7 mb 0.00 in0.0 mm 0.00 in0.0 mm 0.02 in0.5 mm
06:09 PM 61.0°F16.1°C 57.7°F14.3°C 89% 10.0 mph SSE16.1 kmh SSE 14.0 mph22.5 kmh 30.14 in1020.7 mb 0.00 in0.0 mm 0.00 in0.0 mm 0.02 in0.5 mm
06:12 PM 60.8°F16.0°C 57.6°F14.2°C 89% 9.0 mph SSE14.5 kmh SSE 14.0 mph22.5 kmh 30.14 in1020.7 mb 0.00 in0.0 mm 0.00 in0.0 mm 0.02 in0.5 mm
06:15 PM 60.6°F15.9°C 57.4°F14.1°C 89% 9.0 mph SSE14.5 kmh SSE 14.0 mph22.5 kmh 30.14 in1020.7 mb 0.00 in0.0 mm 0.00 in0.0 mm 0.02 in0.5 mm
06:18 PM 60.6°F15.9°C 57.7°F14.3°C 90% 9.0 mph SSE14.5 kmh SSE 13.0 mph20.9 kmh 30.15 in1021.0 mb 0.00 in0.0 mm 0.00 in0.0 mm 0.02 in0.5 mm
06:21 PM 60.4°F15.8°C 57.6°F14.2°C 90% 8.0 mph SSE12.9 kmh SSE 12.0 mph19.3 kmh 30.14 in1020.7 mb 0.00 in0.0 mm 0.00 in0.0 mm 0.02 in0.5 mm
06:24 PM 60.4°F15.8°C 57.4°F14.1°C 90% 8.0 mph SSE12.9 kmh SSE 12.0 mph19.3 kmh 30.14 in1020.7 mb 0.00 in0.0 mm 0.00 in0.0 mm 0.02 in0.5 mm
06:27 PM 60.3°F15.7°C 57.4°F14.1°C 90% 8.0 mph SSE12.9 kmh SSE 11.0 mph17.7 kmh 30.14 in1020.7 mb 0.00 in0.0 mm 0.00 in0.0 mm 0.02 in0.5 mm
06:30 PM 60.3°F15.7°C 57.6°F14.2°C 91% 8.0 mph SSE12.9 kmh SSE 11.0 mph17.7 kmh 30.14 in1020.7 mb 0.00 in0.0 mm 0.00 in0.0 mm 0.02 in0.5 mm
06:33 PM 60.3°F15.7°C 57.6°F14.2°C 91% 8.0 mph SSE12.9 kmh SSE 11.0 mph17.7 kmh 30.14 in1020.7 mb 0.00 in0.0 mm 0.00 in0.0 mm 0.02 in0.5 mm
06:36 PM 60.1°F15.6°C 57.4°F14.1°C 91% 8.0 mph SSE12.9 kmh SSE 11.0 mph17.7 kmh 30.14 in1020.7 mb 0.00 in0.0 mm 0.00 in0.0 mm 0.02 in0.5 mm
06:39 PM 60.1°F15.6°C 57.4°F14.1°C 91% 8.0 mph SSE12.9 kmh SSE 11.0 mph17.7 kmh 30.14 in1020.7 mb 0.00 in0.0 mm 0.00 in0.0 mm 0.02 in0.5 mm
06:42 PM 60.1°F15.6°C 57.4°F14.1°C 91% 7.0 mph SSE11.3 kmh SSE 11.0 mph17.7 kmh 30.14 in1020.7 mb 0.00 in0.0 mm 0.00 in0.0 mm 0.02 in0.5 mm
06:45 PM 60.1°F15.6°C 57.4°F14.1°C 91% 7.0 mph SSE11.3 kmh SSE 11.0 mph17.7 kmh 30.14 in1020.7 mb 0.00 in0.0 mm 0.00 in0.0 mm 0.02 in0.5 mm
06:48 PM 60.1°F15.6°C 57.7°F14.3°C 92% 6.0 mph SSE9.7 kmh SSE 11.0 mph17.7 kmh 30.14 in1020.7 mb 0.00 in0.0 mm 0.00 in0.0 mm 0.02 in0.5 mm
06:51 PM 59.9°F15.5°C 57.6°F14.2°C 92% 6.0 mph S9.7 kmh S 11.0 mph17.7 kmh 30.14 in1020.7 mb 0.00 in0.0 mm 0.00 in0.0 mm 0.02 in0.5 mm
06:54 PM 59.9°F15.5°C 57.6°F14.2°C 92% 6.0 mph S9.7 kmh S 11.0 mph17.7 kmh 30.14 in1020.7 mb 0.00 in0.0 mm 0.00 in0.0 mm 0.02 in0.5 mm
06:57 PM 59.9°F15.5°C 57.6°F14.2°C 92% 6.0 mph S9.7 kmh S 10.0 mph16.1 kmh 30.14 in1020.7 mb 0.00 in0.0 mm 0.00 in0.0 mm 0.02 in0.5 mm
07:00 PM 59.9°F15.5°C 57.6°F14.2°C 92% 6.0 mph S9.7 kmh S 10.0 mph16.1 kmh 30.14 in1020.7 mb 0.00 in0.0 mm 0.00 in0.0 mm 0.02 in0.5 mm
07:03 PM 59.9°F15.5°C 57.6°F14.2°C 92% 6.0 mph S9.7 kmh S 10.0 mph16.1 kmh 30.15 in1021.0 mb 0.00 in0.0 mm 0.00 in0.0 mm 0.02 in0.5 mm
07:06 PM 59.7°F15.4°C 57.6°F14.2°C 92% 7.0 mph S11.3 kmh S 10.0 mph16.1 kmh 30.15 in1021.0 mb 0.00 in0.0 mm 0.00 in0.0 mm 0.02 in0.5 mm
07:09 PM 59.7°F15.4°C 57.6°F14.2°C 92% 7.0 mph S11.3 kmh S 10.0 mph16.1 kmh 30.14 in1020.7 mb 0.00 in0.0 mm 0.00 in0.0 mm 0.02 in0.5 mm
07:12 PM 59.7°F15.4°C 57.6°F14.2°C 92% 7.0 mph S11.3 kmh S 10.0 mph16.1 kmh 30.15 in1021.0 mb 0.00 in0.0 mm 0.00 in0.0 mm 0.02 in0.5 mm
07:15 PM 59.7°F15.4°C 57.6°F14.2°C 92% 7.0 mph S11.3 kmh S 10.0 mph16.1 kmh 30.15 in1021.0 mb 0.00 in0.0 mm 0.00 in0.0 mm 0.02 in0.5 mm
07:18 PM 59.7°F15.4°C 57.6°F14.2°C 92% 8.0 mph S12.9 kmh S 11.0 mph17.7 kmh 30.14 in1020.7 mb 0.00 in0.0 mm 0.00 in0.0 mm 0.02 in0.5 mm
07:21 PM 59.7°F15.4°C 57.6°F14.2°C 92% 7.0 mph S11.3 kmh S 11.0 mph17.7 kmh 30.15 in1021.0 mb 0.00 in0.0 mm 0.00 in0.0 mm 0.02 in0.5 mm
07:24 PM 59.7°F15.4°C 57.6°F14.2°C 92% 7.0 mph S11.3 kmh S 11.0 mph17.7 kmh 30.15 in1021.0 mb 0.00 in0.0 mm 0.00 in0.0 mm 0.02 in0.5 mm
07:27 PM 59.7°F15.4°C 57.6°F14.2°C 92% 7.0 mph S11.3 kmh S 10.0 mph16.1 kmh 30.15 in1021.0 mb 0.00 in0.0 mm 0.00 in0.0 mm 0.02 in0.5 mm
07:30 PM 59.7°F15.4°C 57.6°F14.2°C 92% 7.0 mph S11.3 kmh S 10.0 mph16.1 kmh 30.15 in1021.0 mb 0.00 in0.0 mm 0.00 in0.0 mm 0.02 in0.5 mm
07:33 PM 59.7°F15.4°C 57.6°F14.2°C 92% 6.0 mph S9.7 kmh S 10.0 mph16.1 kmh 30.15 in1021.0 mb 0.00 in0.0 mm 0.00 in0.0 mm 0.02 in0.5 mm
07:36 PM 59.7°F15.4°C 57.7°F14.3°C 93% 6.0 mph S9.7 kmh S 10.0 mph16.1 kmh 30.15 in1021.0 mb 0.00 in0.0 mm 0.00 in0.0 mm 0.02 in0.5 mm
07:39 PM 59.7°F15.4°C 57.7°F14.3°C 93% 6.0 mph S9.7 kmh S 9.0 mph14.5 kmh 30.15 in1021.0 mb 0.00 in0.0 mm 0.00 in0.0 mm 0.02 in0.5 mm
07:42 PM 59.7°F15.4°C 57.7°F14.3°C 93% 5.0 mph S8.0 kmh S 9.0 mph14.5 kmh 30.15 in1021.0 mb 0.00 in0.0 mm 0.00 in0.0 mm 0.02 in0.5 mm
07:45 PM 59.7°F15.4°C 57.7°F14.3°C 93% 5.0 mph SSE8.0 kmh SSE 9.0 mph14.5 kmh 30.15 in1021.0 mb 0.00 in0.0 mm 0.00 in0.0 mm 0.02 in0.5 mm
07:48 PM 59.7°F15.4°C 57.7°F14.3°C 93% 6.0 mph SSE9.7 kmh SSE 9.0 mph14.5 kmh 30.15 in1021.0 mb 0.00 in0.0 mm 0.00 in0.0 mm 0.02 in0.5 mm
07:51 PM 59.7°F15.4°C 57.7°F14.3°C 93% 6.0 mph SSE9.7 kmh SSE 9.0 mph14.5 kmh 30.15 in1021.0 mb 0.00 in0.0 mm 0.00 in0.0 mm 0.02 in0.5 mm
07:54 PM 59.7°F15.4°C 57.7°F14.3°C 93% 7.0 mph SSE11.3 kmh SSE 10.0 mph16.1 kmh 30.15 in1021.0 mb 0.00 in0.0 mm 0.00 in0.0 mm 0.02 in0.5 mm
07:57 PM 59.7°F15.4°C 57.7°F14.3°C 93% 7.0 mph SSE11.3 kmh SSE 10.0 mph16.1 kmh 30.15 in1021.0 mb 0.00 in0.0 mm 0.00 in0.0 mm 0.02 in0.5 mm
08:00 PM 59.7°F15.4°C 57.7°F14.3°C 93% 6.0 mph S9.7 kmh S 10.0 mph16.1 kmh 30.15 in1021.0 mb 0.00 in0.0 mm 0.00 in0.0 mm 0.02 in0.5 mm
08:03 PM 59.7°F15.4°C 57.7°F14.3°C 93% 6.0 mph S9.7 kmh S 10.0 mph16.1 kmh 30.15 in1021.0 mb 0.00 in0.0 mm 0.00 in0.0 mm 0.02 in0.5 mm
08:06 PM 59.7°F15.4°C 57.7°F14.3°C 93% 6.0 mph S9.7 kmh S 10.0 mph16.1 kmh 30.15 in1021.0 mb 0.00 in0.0 mm 0.00 in0.0 mm 0.02 in0.5 mm
08:09 PM 59.7°F15.4°C 57.7°F14.3°C 93% 6.0 mph S9.7 kmh S 10.0 mph16.1 kmh 30.15 in1021.0 mb 0.00 in0.0 mm 0.00 in0.0 mm 0.02 in0.5 mm
08:12 PM 59.7°F15.4°C 57.7°F14.3°C 93% 6.0 mph S9.7 kmh S 10.0 mph16.1 kmh 30.15 in1021.0 mb 0.00 in0.0 mm 0.00 in0.0 mm 0.02 in0.5 mm
08:15 PM 59.7°F15.4°C 57.7°F14.3°C 93% 7.0 mph S11.3 kmh S 10.0 mph16.1 kmh 30.15 in1021.0 mb 0.00 in0.0 mm 0.00 in0.0 mm 0.02 in0.5 mm
08:18 PM 59.7°F15.4°C 57.7°F14.3°C 93% 7.0 mph S11.3 kmh S 10.0 mph16.1 kmh 30.15 in1021.0 mb 0.00 in0.0 mm 0.00 in0.0 mm 0.02 in0.5 mm
08:21 PM 59.7°F15.4°C 57.7°F14.3°C 93% 6.0 mph S9.7 kmh S 10.0 mph16.1 kmh 30.15 in1021.0 mb 0.00 in0.0 mm 0.00 in0.0 mm 0.02 in0.5 mm
08:24 PM 59.7°F15.4°C 57.7°F14.3°C 93% 6.0 mph S9.7 kmh S 11.0 mph17.7 kmh 30.15 in1021.0 mb 0.00 in0.0 mm 0.00 in0.0 mm 0.02 in0.5 mm
08:27 PM 59.7°F15.4°C 57.7°F14.3°C 93% 6.0 mph S9.7 kmh S 11.0 mph17.7 kmh 30.15 in1021.0 mb 0.00 in0.0 mm 0.00 in0.0 mm 0.02 in0.5 mm
08:30 PM 59.7°F15.4°C 57.7°F14.3°C 93% 7.0 mph S11.3 kmh S 11.0 mph17.7 kmh 30.15 in1021.0 mb 0.00 in0.0 mm 0.00 in0.0 mm 0.02 in0.5 mm
08:33 PM 59.7°F15.4°C 57.7°F14.3°C 93% 6.0 mph S9.7 kmh S 11.0 mph17.7 kmh 30.15 in1021.0 mb 0.00 in0.0 mm 0.00 in0.0 mm 0.02 in0.5 mm
08:36 PM 59.7°F15.4°C 57.7°F14.3°C 93% 6.0 mph S9.7 kmh S 10.0 mph16.1 kmh 30.15 in1021.0 mb 0.00 in0.0 mm 0.00 in0.0 mm 0.02 in0.5 mm
08:39 PM 59.7°F15.4°C 57.7°F14.3°C 93% 7.0 mph S11.3 kmh S 12.0 mph19.3 kmh 30.15 in1021.0 mb 0.00 in0.0 mm 0.00 in0.0 mm 0.02 in0.5 mm
08:42 PM 59.7°F15.4°C 57.7°F14.3°C 93% 7.0 mph S11.3 kmh S 12.0 mph19.3 kmh 30.15 in1021.0 mb 0.00 in0.0 mm 0.00 in0.0 mm 0.02 in0.5 mm
08:45 PM 59.7°F15.4°C 57.7°F14.3°C 93% 7.0 mph S11.3 kmh S 12.0 mph19.3 kmh 30.15 in1021.0 mb 0.00 in0.0 mm 0.00 in0.0 mm 0.02 in0.5 mm
08:48 PM 59.7°F15.4°C 58.1°F14.5°C 94% 6.0 mph S9.7 kmh S 10.0 mph16.1 kmh 30.15 in1021.0 mb 0.00 in0.0 mm 0.00 in0.0 mm 0.02 in0.5 mm
08:51 PM 59.7°F15.4°C 58.1°F14.5°C 94% 6.0 mph S9.7 kmh S 10.0 mph16.1 kmh 30.15 in1021.0 mb 0.00 in0.0 mm 0.00 in0.0 mm 0.02 in0.5 mm
08:54 PM 59.7°F15.4°C 58.1°F14.5°C 94% 6.0 mph S9.7 kmh S 12.0 mph19.3 kmh 30.15 in1021.0 mb 0.00 in0.0 mm 0.00 in0.0 mm 0.02 in0.5 mm
08:57 PM 59.7°F15.4°C 57.9°F14.4°C 94% 6.0 mph SSE9.7 kmh SSE 12.0 mph19.3 kmh 30.15 in1021.0 mb 0.00 in0.0 mm 0.00 in0.0 mm 0.02 in0.5 mm
09:00 PM 59.7°F15.4°C 57.7°F14.3°C 93% 6.0 mph SSE9.7 kmh SSE 12.0 mph19.3 kmh 30.15 in1021.0 mb 0.00 in0.0 mm 0.00 in0.0 mm 0.02 in0.5 mm
09:03 PM 59.7°F15.4°C 57.7°F14.3°C 93% 6.0 mph S9.7 kmh S 11.0 mph17.7 kmh 30.15 in1021.0 mb 0.00 in0.0 mm 0.00 in0.0 mm 0.02 in0.5 mm
09:06 PM 59.7°F15.4°C 57.9°F14.4°C 94% 7.0 mph S11.3 kmh S 11.0 mph17.7 kmh 30.15 in1021.0 mb 0.00 in0.0 mm 0.00 in0.0 mm 0.02 in0.5 mm
09:09 PM 59.7°F15.4°C 57.9°F14.4°C 94% 7.0 mph S11.3 kmh S 11.0 mph17.7 kmh 30.15 in1021.0 mb 0.00 in0.0 mm 0.00 in0.0 mm 0.02 in0.5 mm
09:12 PM 59.7°F15.4°C 57.9°F14.4°C 94% 7.0 mph S11.3 kmh S 11.0 mph17.7 kmh 30.15 in1021.0 mb 0.00 in0.0 mm 0.00 in0.0 mm 0.02 in0.5 mm
09:15 PM 59.7°F15.4°C 57.9°F14.4°C 94% 6.0 mph S9.7 kmh S 11.0 mph17.7 kmh 30.15 in1021.0 mb 0.00 in0.0 mm 0.00 in0.0 mm 0.02 in0.5 mm
09:18 PM 59.7°F15.4°C 57.9°F14.4°C 94% 6.0 mph S9.7 kmh S 11.0 mph17.7 kmh 30.15 in1021.0 mb 0.00 in0.0 mm 0.00 in0.0 mm 0.02 in0.5 mm
09:21 PM 59.7°F15.4°C 57.9°F14.4°C 94% 7.0 mph S11.3 kmh S 11.0 mph17.7 kmh 30.15 in1021.0 mb 0.00 in0.0 mm 0.00 in0.0 mm 0.02 in0.5 mm
09:24 PM 59.7°F15.4°C 57.9°F14.4°C 94% 7.0 mph S11.3 kmh S 12.0 mph19.3 kmh 30.15 in1021.0 mb 0.00 in0.0 mm 0.00 in0.0 mm 0.02 in0.5 mm
09:27 PM 59.7°F15.4°C 57.9°F14.4°C 94% 8.0 mph S12.9 kmh S 12.0 mph19.3 kmh 30.15 in1021.0 mb 0.00 in0.0 mm 0.00 in0.0 mm 0.02 in0.5 mm
09:30 PM 59.5°F15.3°C 57.9°F14.4°C 94% 8.0 mph S12.9 kmh S 12.0 mph19.3 kmh 30.15 in1021.0 mb 0.00 in0.0 mm 0.00 in0.0 mm 0.02 in0.5 mm
09:33 PM 59.5°F15.3°C 57.9°F14.4°C 94% 7.0 mph S11.3 kmh S 11.0 mph17.7 kmh 30.15 in1021.0 mb 0.00 in0.0 mm 0.00 in0.0 mm 0.02 in0.5 mm
09:36 PM 59.5°F15.3°C 57.7°F14.3°C 94% 7.0 mph S11.3 kmh S 10.0 mph16.1 kmh 30.15 in1021.0 mb 0.00 in0.0 mm 0.00 in0.0 mm 0.02 in0.5 mm
09:39 PM 59.5°F15.3°C 57.7°F14.3°C 94% 6.0 mph S9.7 kmh S 12.0 mph19.3 kmh 30.15 in1021.0 mb 0.00 in0.0 mm 0.00 in0.0 mm 0.02 in0.5 mm
09:42 PM 59.5°F15.3°C 57.7°F14.3°C 94% 7.0 mph S11.3 kmh S 12.0 mph19.3 kmh 30.15 in1021.0 mb 0.00 in0.0 mm 0.00 in0.0 mm 0.02 in0.5 mm
09:45 PM 59.5°F15.3°C 57.7°F14.3°C 94% 7.0 mph S11.3 kmh S 12.0 mph19.3 kmh 30.15 in1021.0 mb 0.00 in0.0 mm 0.00 in0.0 mm 0.02 in0.5 mm
09:48 PM 59.4°F15.2°C 57.7°F14.3°C 94% 7.0 mph S11.3 kmh S 12.0 mph19.3 kmh 30.14 in1020.7 mb 0.00 in0.0 mm 0.00 in0.0 mm 0.02 in0.5 mm
09:51 PM 59.4°F15.2°C 57.6°F14.2°C 94% 8.0 mph S12.9 kmh S 12.0 mph19.3 kmh 30.15 in1021.0 mb 0.00 in0.0 mm 0.00 in0.0 mm 0.02 in0.5 mm
09:54 PM 59.2°F15.1°C 57.6°F14.2°C 94% 8.0 mph S12.9 kmh S 12.0 mph19.3 kmh 30.15 in1021.0 mb 0.00 in0.0 mm 0.00 in0.0 mm 0.02 in0.5 mm
09:57 PM 59.2°F15.1°C 57.7°F14.3°C 95% 8.0 mph S12.9 kmh S 12.0 mph19.3 kmh 30.14 in1020.7 mb 0.00 in0.0 mm 0.00 in0.0 mm 0.02 in0.5 mm
10:00 PM 59.2°F15.1°C 57.7°F14.3°C 95% 8.0 mph S12.9 kmh S 12.0 mph19.3 kmh 30.14 in1020.7 mb 0.00 in0.0 mm 0.00 in0.0 mm 0.02 in0.5 mm
10:03 PM 58.8°F14.9°C 57.6°F14.2°C 95% 9.0 mph S14.5 kmh S 17.0 mph27.4 kmh 30.14 in1020.7 mb 0.00 in0.0 mm 0.00 in0.0 mm 0.02 in0.5 mm
10:06 PM 58.6°F14.8°C 57.2°F14.0°C 95% 9.0 mph S14.5 kmh S 17.0 mph27.4 kmh 30.14 in1020.7 mb 0.00 in0.0 mm 0.00 in0.0 mm 0.02 in0.5 mm
10:09 PM 58.6°F14.8°C 57.2°F14.0°C 95% 10.0 mph S16.1 kmh S 17.0 mph27.4 kmh 30.14 in1020.7 mb 0.00 in0.0 mm 0.00 in0.0 mm 0.02 in0.5 mm
10:12 PM 58.5°F14.7°C 57.0°F13.9°C 95% 10.0 mph S16.1 kmh S 13.0 mph20.9 kmh 30.14 in1020.7 mb 0.00 in0.0 mm 0.00 in0.0 mm 0.02 in0.5 mm
10:15 PM 58.5°F14.7°C 57.0°F13.9°C 95% 10.0 mph S16.1 kmh S 15.0 mph24.1 kmh 30.14 in1020.7 mb 0.00 in0.0 mm 0.00 in0.0 mm 0.02 in0.5 mm
10:18 PM 58.5°F14.7°C 57.0°F13.9°C 95% 9.0 mph S14.5 kmh S 15.0 mph24.1 kmh 30.14 in1020.7 mb 0.00 in0.0 mm 0.00 in0.0 mm 0.02 in0.5 mm
10:21 PM 58.3°F14.6°C 56.8°F13.8°C 95% 9.0 mph S14.5 kmh S 15.0 mph24.1 kmh 30.14 in1020.7 mb 0.00 in0.0 mm 0.00 in0.0 mm 0.02 in0.5 mm
10:24 PM 58.3°F14.6°C 56.8°F13.8°C 95% 9.0 mph S14.5 kmh S 13.0 mph20.9 kmh 30.14 in1020.7 mb 0.00 in0.0 mm 0.00 in0.0 mm 0.02 in0.5 mm
10:27 PM 58.1°F14.5°C 56.7°F13.7°C 95% 9.0 mph S14.5 kmh S 12.0 mph19.3 kmh 30.14 in1020.7 mb 0.00 in0.0 mm 0.00 in0.0 mm 0.02 in0.5 mm
10:30 PM 57.9°F14.4°C 56.7°F13.7°C 95% 9.0 mph S14.5 kmh S 16.0 mph25.7 kmh 30.14 in1020.7 mb 0.00 in0.0 mm 0.00 in0.0 mm 0.02 in0.5 mm
10:33 PM 57.9°F14.4°C 56.5°F13.6°C 95% 9.0 mph S14.5 kmh S 16.0 mph25.7 kmh 30.14 in1020.7 mb 0.00 in0.0 mm 0.00 in0.0 mm 0.02 in0.5 mm
10:36 PM 57.7°F14.3°C 56.3°F13.5°C 95% 9.0 mph S14.5 kmh S 16.0 mph25.7 kmh 30.14 in1020.7 mb 0.00 in0.0 mm 0.00 in0.0 mm 0.02 in0.5 mm
10:39 PM 57.7°F14.3°C 56.3°F13.5°C 95% 8.0 mph S12.9 kmh S 16.0 mph25.7 kmh 30.14 in1020.7 mb 0.00 in0.0 mm 0.00 in0.0 mm 0.02 in0.5 mm
10:42 PM 57.6°F14.2°C 56.1°F13.4°C 95% 8.0 mph S12.9 kmh S 12.0 mph19.3 kmh 30.14 in1020.7 mb 0.00 in0.0 mm 0.00 in0.0 mm 0.02 in0.5 mm
10:45 PM 57.6°F14.2°C 56.1°F13.4°C 95% 8.0 mph S12.9 kmh S 12.0 mph19.3 kmh 30.14 in1020.7 mb 0.00 in0.0 mm 0.00 in0.0 mm 0.02 in0.5 mm
10:48 PM 57.6°F14.2°C 56.1°F13.4°C 95% 8.0 mph SSE12.9 kmh SSE 12.0 mph19.3 kmh 30.14 in1020.7 mb 0.00 in0.0 mm 0.00 in0.0 mm 0.02 in0.5 mm
10:51 PM 57.6°F14.2°C 56.5°F13.6°C 96% 8.0 mph SSE12.9 kmh SSE 12.0 mph19.3 kmh 30.14 in1020.7 mb 0.00 in0.0 mm 0.00 in0.0 mm 0.02 in0.5 mm
10:54 PM 57.6°F14.2°C 56.5°F13.6°C 96% 8.0 mph S12.9 kmh S 12.0 mph19.3 kmh 30.14 in1020.7 mb 0.00 in0.0 mm 0.00 in0.0 mm 0.02 in0.5 mm
10:57 PM 57.6°F14.2°C 56.5°F13.6°C 96% 7.0 mph S11.3 kmh S 12.0 mph19.3 kmh 30.14 in1020.7 mb 0.00 in0.0 mm 0.00 in0.0 mm 0.02 in0.5 mm
11:00 PM 57.6°F14.2°C 56.5°F13.6°C 96% 7.0 mph S11.3 kmh S 12.0 mph19.3 kmh 30.14 in1020.7 mb 0.00 in0.0 mm 0.00 in0.0 mm 0.02 in0.5 mm
11:03 PM 57.6°F14.2°C 56.5°F13.6°C 96% 7.0 mph S11.3 kmh S 11.0 mph17.7 kmh 30.14 in1020.7 mb 0.00 in0.0 mm 0.00 in0.0 mm 0.02 in0.5 mm
11:06 PM 57.6°F14.2°C 56.5°F13.6°C 96% 7.0 mph S11.3 kmh S 10.0 mph16.1 kmh 30.14 in1020.7 mb 0.00 in0.0 mm 0.00 in0.0 mm 0.02 in0.5 mm
11:09 PM 57.6°F14.2°C 56.5°F13.6°C 96% 7.0 mph S11.3 kmh S 13.0 mph20.9 kmh 30.14 in1020.7 mb 0.00 in0.0 mm 0.00 in0.0 mm 0.02 in0.5 mm
11:12 PM 57.6°F14.2°C 56.5°F13.6°C 96% 7.0 mph S11.3 kmh S 13.0 mph20.9 kmh 30.14 in1020.7 mb 0.00 in0.0 mm 0.00 in0.0 mm 0.02 in0.5 mm
11:15 PM 57.6°F14.2°C 56.5°F13.6°C 96% 8.0 mph S12.9 kmh S 13.0 mph20.9 kmh 30.14 in1020.7 mb 0.00 in0.0 mm 0.00 in0.0 mm 0.02 in0.5 mm
11:18 PM 57.6°F14.2°C 56.5°F13.6°C 96% 8.0 mph S12.9 kmh S 13.0 mph20.9 kmh 30.14 in1020.7 mb 0.00 in0.0 mm 0.00 in0.0 mm 0.02 in0.5 mm
11:21 PM 57.6°F14.2°C 56.3°F13.5°C 96% 8.0 mph S12.9 kmh S 14.0 mph22.5 kmh 30.14 in1020.7 mb 0.00 in0.0 mm 0.00 in0.0 mm 0.02 in0.5 mm
11:24 PM 57.6°F14.2°C 56.3°F13.5°C 96% 8.0 mph S12.9 kmh S 14.0 mph22.5 kmh 30.14 in1020.7 mb 0.00 in0.0 mm 0.00 in0.0 mm 0.02 in0.5 mm
11:27 PM 57.4°F14.1°C 56.3°F13.5°C 96% 8.0 mph S12.9 kmh S 14.0 mph22.5 kmh 30.14 in1020.7 mb 0.00 in0.0 mm 0.00 in0.0 mm 0.02 in0.5 mm
11:30 PM 57.4°F14.1°C 56.3°F13.5°C 96% 7.0 mph S11.3 kmh S 14.0 mph22.5 kmh 30.14 in1020.7 mb 0.00 in0.0 mm 0.00 in0.0 mm 0.02 in0.5 mm
11:33 PM 57.4°F14.1°C 56.1°F13.4°C 96% 7.0 mph S11.3 kmh S 10.0 mph16.1 kmh 30.13 in1020.3 mb 0.00 in0.0 mm 0.00 in0.0 mm 0.02 in0.5 mm
11:36 PM 57.4°F14.1°C 56.1°F13.4°C 96% 7.0 mph S11.3 kmh S 10.0 mph16.1 kmh 30.13 in1020.3 mb 0.00 in0.0 mm 0.00 in0.0 mm 0.02 in0.5 mm
11:39 PM 57.4°F14.1°C 56.1°F13.4°C 96% 7.0 mph S11.3 kmh S 11.0 mph17.7 kmh 30.13 in1020.3 mb 0.00 in0.0 mm 0.00 in0.0 mm 0.02 in0.5 mm
11:42 PM 57.4°F14.1°C 56.1°F13.4°C 96% 7.0 mph S11.3 kmh S 11.0 mph17.7 kmh 30.13 in1020.3 mb 0.00 in0.0 mm 0.00 in0.0 mm 0.02 in0.5 mm
11:45 PM 57.4°F14.1°C 56.1°F13.4°C 96% 6.0 mph S9.7 kmh S 11.0 mph17.7 kmh 30.13 in1020.3 mb 0.00 in0.0 mm 0.00 in0.0 mm 0.02 in0.5 mm
11:48 PM 57.4°F14.1°C 56.1°F13.4°C 96% 6.0 mph S9.7 kmh S 10.0 mph16.1 kmh 30.13 in1020.3 mb 0.00 in0.0 mm 0.00 in0.0 mm 0.02 in0.5 mm
11:51 PM 57.4°F14.1°C 56.1°F13.4°C 96% 6.0 mph S9.7 kmh S 10.0 mph16.1 kmh 30.13 in1020.3 mb 0.00 in0.0 mm 0.00 in0.0 mm 0.02 in0.5 mm
11:54 PM 57.4°F14.1°C 56.1°F13.4°C 96% 6.0 mph S9.7 kmh S 10.0 mph16.1 kmh 30.13 in1020.3 mb 0.00 in0.0 mm 0.00 in0.0 mm 0.02 in0.5 mm
11:57 PM 57.4°F14.1°C 56.1°F13.4°C 96% 5.0 mph S8.0 kmh S 8.0 mph12.9 kmh 30.13 in1020.3 mb 0.00 in0.0 mm 0.00 in0.0 mm 0.02 in0.5 mm